<?xml version="1.0" encoding="UTF-8" standalone="no" ?>
<gpx xmlns="http://www.topografix.com/GPX/1/1" xmlns:xsi="http://www.w3.org/2001/XMLSchema-instance" xsi:schemaLocation="http://www.topografix.com/GPX/1/1 http://www.topografix.com/GPX/1/1/gpx.xsd" version="1.1" creator="VisuGPX - https://www.visugpx.com">
  <metadata>
    <name>circuit du fer à cheval Prémanon</name>
    <desc><![CDATA[Circuit à partir de la résidence Hispano Suiza. Circuit de niveau facile à moyen]]></desc>
  </metadata>
  <trk>
    <name><![CDATA[Fer A Cheval]]></name>
    <desc><![CDATA[]]></desc>
    <trkseg>
      <trkpt lat="46.45795" lon="6.04955">
        <ele>1147.7</ele>
        <time>2012-08-13T17:13:04.701Z</time>
      </trkpt>
      <trkpt lat="46.45823" lon="6.04961">
        <ele>1172.1</ele>
        <time>2012-08-13T17:13:05.000Z</time>
      </trkpt>
      <trkpt lat="46.45817" lon="6.04962">
        <ele>1168.4</ele>
        <time>2012-08-13T17:13:06.000Z</time>
      </trkpt>
      <trkpt lat="46.45826" lon="6.04963">
        <ele>1177.6</ele>
        <time>2012-08-13T17:13:09.000Z</time>
      </trkpt>
      <trkpt lat="46.45818" lon="6.04962">
        <ele>1169.5</ele>
        <time>2012-08-13T17:13:13.000Z</time>
      </trkpt>
      <trkpt lat="46.45814" lon="6.04962">
        <ele>1167.8</ele>
        <time>2012-08-13T17:13:24.000Z</time>
      </trkpt>
      <trkpt lat="46.45821" lon="6.04954">
        <ele>1175.3</ele>
        <time>2012-08-13T17:13:30.000Z</time>
      </trkpt>
      <trkpt lat="46.45823" lon="6.04947">
        <ele>1177</ele>
        <time>2012-08-13T17:13:31.000Z</time>
      </trkpt>
      <trkpt lat="46.45823" lon="6.0494">
        <ele>1177.8</ele>
        <time>2012-08-13T17:13:36.000Z</time>
      </trkpt>
      <trkpt lat="46.45818" lon="6.04937">
        <ele>1177.2</ele>
        <time>2012-08-13T17:13:38.000Z</time>
      </trkpt>
      <trkpt lat="46.4581" lon="6.04932">
        <ele>1177.5</ele>
        <time>2012-08-13T17:13:40.000Z</time>
      </trkpt>
      <trkpt lat="46.45805" lon="6.0493">
        <ele>1177.5</ele>
        <time>2012-08-13T17:13:42.000Z</time>
      </trkpt>
      <trkpt lat="46.458" lon="6.04929">
        <ele>1178.9</ele>
        <time>2012-08-13T17:13:44.000Z</time>
      </trkpt>
      <trkpt lat="46.45793" lon="6.04925">
        <ele>1177.4</ele>
        <time>2012-08-13T17:13:47.000Z</time>
      </trkpt>
      <trkpt lat="46.45787" lon="6.0492">
        <ele>1176.1</ele>
        <time>2012-08-13T17:13:50.000Z</time>
      </trkpt>
      <trkpt lat="46.45783" lon="6.04917">
        <ele>1175.8</ele>
        <time>2012-08-13T17:13:52.000Z</time>
      </trkpt>
      <trkpt lat="46.45778" lon="6.04913">
        <ele>1175.5</ele>
        <time>2012-08-13T17:13:55.000Z</time>
      </trkpt>
      <trkpt lat="46.45772" lon="6.04913">
        <ele>1175.7</ele>
        <time>2012-08-13T17:13:58.000Z</time>
      </trkpt>
      <trkpt lat="46.45768" lon="6.04914">
        <ele>1176.2</ele>
        <time>2012-08-13T17:14:00.000Z</time>
      </trkpt>
      <trkpt lat="46.45761" lon="6.04912">
        <ele>1174.8</ele>
        <time>2012-08-13T17:14:03.000Z</time>
      </trkpt>
      <trkpt lat="46.45755" lon="6.04911">
        <ele>1174.5</ele>
        <time>2012-08-13T17:14:06.000Z</time>
      </trkpt>
      <trkpt lat="46.45749" lon="6.04908">
        <ele>1174.3</ele>
        <time>2012-08-13T17:14:09.000Z</time>
      </trkpt>
      <trkpt lat="46.45743" lon="6.04903">
        <ele>1174.9</ele>
        <time>2012-08-13T17:14:12.000Z</time>
      </trkpt>
      <trkpt lat="46.45739" lon="6.04898">
        <ele>1175.4</ele>
        <time>2012-08-13T17:14:15.000Z</time>
      </trkpt>
      <trkpt lat="46.45735" lon="6.04892">
        <ele>1176</ele>
        <time>2012-08-13T17:14:19.000Z</time>
      </trkpt>
      <trkpt lat="46.45733" lon="6.04883">
        <ele>1173.9</ele>
        <time>2012-08-13T17:14:23.000Z</time>
      </trkpt>
      <trkpt lat="46.45733" lon="6.04875">
        <ele>1173.9</ele>
        <time>2012-08-13T17:14:26.000Z</time>
      </trkpt>
      <trkpt lat="46.45731" lon="6.04867">
        <ele>1174</ele>
        <time>2012-08-13T17:14:29.000Z</time>
      </trkpt>
      <trkpt lat="46.45729" lon="6.0486">
        <ele>1173.4</ele>
        <time>2012-08-13T17:14:32.000Z</time>
      </trkpt>
      <trkpt lat="46.45727" lon="6.04853">
        <ele>1174.1</ele>
        <time>2012-08-13T17:14:35.000Z</time>
      </trkpt>
      <trkpt lat="46.45726" lon="6.04845">
        <ele>1176.2</ele>
        <time>2012-08-13T17:14:39.000Z</time>
      </trkpt>
      <trkpt lat="46.45724" lon="6.04837">
        <ele>1177.1</ele>
        <time>2012-08-13T17:14:42.000Z</time>
      </trkpt>
      <trkpt lat="46.45721" lon="6.0483">
        <ele>1177.9</ele>
        <time>2012-08-13T17:14:45.000Z</time>
      </trkpt>
      <trkpt lat="46.45717" lon="6.04822">
        <ele>1178.3</ele>
        <time>2012-08-13T17:14:48.000Z</time>
      </trkpt>
      <trkpt lat="46.45714" lon="6.04817">
        <ele>1178.9</ele>
        <time>2012-08-13T17:14:50.000Z</time>
      </trkpt>
      <trkpt lat="46.45711" lon="6.04812">
        <ele>1179.7</ele>
        <time>2012-08-13T17:14:52.000Z</time>
      </trkpt>
      <trkpt lat="46.45707" lon="6.04806">
        <ele>1180.2</ele>
        <time>2012-08-13T17:14:55.000Z</time>
      </trkpt>
      <trkpt lat="46.45702" lon="6.04801">
        <ele>1181.1</ele>
        <time>2012-08-13T17:14:58.000Z</time>
      </trkpt>
      <trkpt lat="46.45698" lon="6.04794">
        <ele>1181.7</ele>
        <time>2012-08-13T17:15:01.000Z</time>
      </trkpt>
      <trkpt lat="46.45694" lon="6.04789">
        <ele>1181.4</ele>
        <time>2012-08-13T17:15:04.000Z</time>
      </trkpt>
      <trkpt lat="46.45689" lon="6.04783">
        <ele>1181.9</ele>
        <time>2012-08-13T17:15:07.000Z</time>
      </trkpt>
      <trkpt lat="46.45686" lon="6.04776">
        <ele>1181.8</ele>
        <time>2012-08-13T17:15:09.000Z</time>
      </trkpt>
      <trkpt lat="46.45682" lon="6.04769">
        <ele>1182.6</ele>
        <time>2012-08-13T17:15:11.000Z</time>
      </trkpt>
      <trkpt lat="46.45677" lon="6.04762">
        <ele>1183.2</ele>
        <time>2012-08-13T17:15:13.000Z</time>
      </trkpt>
      <trkpt lat="46.45673" lon="6.04755">
        <ele>1183.3</ele>
        <time>2012-08-13T17:15:15.000Z</time>
      </trkpt>
      <trkpt lat="46.4567" lon="6.04747">
        <ele>1183.3</ele>
        <time>2012-08-13T17:15:17.000Z</time>
      </trkpt>
      <trkpt lat="46.45668" lon="6.04741">
        <ele>1183.5</ele>
        <time>2012-08-13T17:15:19.000Z</time>
      </trkpt>
      <trkpt lat="46.45665" lon="6.04735">
        <ele>1183.1</ele>
        <time>2012-08-13T17:15:22.000Z</time>
      </trkpt>
      <trkpt lat="46.45661" lon="6.0473">
        <ele>1183.7</ele>
        <time>2012-08-13T17:15:25.000Z</time>
      </trkpt>
      <trkpt lat="46.45658" lon="6.04724">
        <ele>1184.1</ele>
        <time>2012-08-13T17:15:28.000Z</time>
      </trkpt>
      <trkpt lat="46.45653" lon="6.04721">
        <ele>1187.8</ele>
        <time>2012-08-13T17:15:31.000Z</time>
      </trkpt>
      <trkpt lat="46.45648" lon="6.04718">
        <ele>1188.7</ele>
        <time>2012-08-13T17:15:34.000Z</time>
      </trkpt>
      <trkpt lat="46.4565" lon="6.0471">
        <ele>1188.3</ele>
        <time>2012-08-13T17:15:39.000Z</time>
      </trkpt>
      <trkpt lat="46.45653" lon="6.04704">
        <ele>1187.5</ele>
        <time>2012-08-13T17:15:47.000Z</time>
      </trkpt>
      <trkpt lat="46.45655" lon="6.04695">
        <ele>1189.9</ele>
        <time>2012-08-13T17:15:50.000Z</time>
      </trkpt>
      <trkpt lat="46.45656" lon="6.04688">
        <ele>1190.8</ele>
        <time>2012-08-13T17:15:52.000Z</time>
      </trkpt>
      <trkpt lat="46.45657" lon="6.04679">
        <ele>1191</ele>
        <time>2012-08-13T17:15:54.000Z</time>
      </trkpt>
      <trkpt lat="46.45656" lon="6.04672">
        <ele>1188.9</ele>
        <time>2012-08-13T17:15:56.000Z</time>
      </trkpt>
      <trkpt lat="46.45657" lon="6.04664">
        <ele>1187.3</ele>
        <time>2012-08-13T17:15:59.000Z</time>
      </trkpt>
      <trkpt lat="46.45661" lon="6.04657">
        <ele>1188.3</ele>
        <time>2012-08-13T17:16:02.000Z</time>
      </trkpt>
      <trkpt lat="46.45664" lon="6.04652">
        <ele>1188.6</ele>
        <time>2012-08-13T17:16:04.000Z</time>
      </trkpt>
      <trkpt lat="46.45667" lon="6.04646">
        <ele>1188.5</ele>
        <time>2012-08-13T17:16:06.000Z</time>
      </trkpt>
      <trkpt lat="46.45671" lon="6.0464">
        <ele>1188.2</ele>
        <time>2012-08-13T17:16:09.000Z</time>
      </trkpt>
      <trkpt lat="46.45676" lon="6.04634">
        <ele>1189</ele>
        <time>2012-08-13T17:16:12.000Z</time>
      </trkpt>
      <trkpt lat="46.45681" lon="6.04628">
        <ele>1187.1</ele>
        <time>2012-08-13T17:16:15.000Z</time>
      </trkpt>
      <trkpt lat="46.45684" lon="6.04621">
        <ele>1186.7</ele>
        <time>2012-08-13T17:16:18.000Z</time>
      </trkpt>
      <trkpt lat="46.45689" lon="6.04615">
        <ele>1187</ele>
        <time>2012-08-13T17:16:21.000Z</time>
      </trkpt>
      <trkpt lat="46.45693" lon="6.0461">
        <ele>1186.4</ele>
        <time>2012-08-13T17:16:23.000Z</time>
      </trkpt>
      <trkpt lat="46.45698" lon="6.04604">
        <ele>1185.1</ele>
        <time>2012-08-13T17:16:26.000Z</time>
      </trkpt>
      <trkpt lat="46.45702" lon="6.046">
        <ele>1186.1</ele>
        <time>2012-08-13T17:16:28.000Z</time>
      </trkpt>
      <trkpt lat="46.45705" lon="6.04596">
        <ele>1186.5</ele>
        <time>2012-08-13T17:16:30.000Z</time>
      </trkpt>
      <trkpt lat="46.4571" lon="6.04592">
        <ele>1186.7</ele>
        <time>2012-08-13T17:16:32.000Z</time>
      </trkpt>
      <trkpt lat="46.45713" lon="6.04586">
        <ele>1186.6</ele>
        <time>2012-08-13T17:16:35.000Z</time>
      </trkpt>
      <trkpt lat="46.45716" lon="6.04581">
        <ele>1187</ele>
        <time>2012-08-13T17:16:39.000Z</time>
      </trkpt>
      <trkpt lat="46.45719" lon="6.04577">
        <ele>1188</ele>
        <time>2012-08-13T17:16:42.000Z</time>
      </trkpt>
      <trkpt lat="46.45722" lon="6.04572">
        <ele>1189.2</ele>
        <time>2012-08-13T17:16:45.000Z</time>
      </trkpt>
      <trkpt lat="46.45725" lon="6.04566">
        <ele>1189.2</ele>
        <time>2012-08-13T17:16:48.000Z</time>
      </trkpt>
      <trkpt lat="46.45727" lon="6.04558">
        <ele>1188.8</ele>
        <time>2012-08-13T17:16:52.000Z</time>
      </trkpt>
      <trkpt lat="46.4573" lon="6.04551">
        <ele>1189.9</ele>
        <time>2012-08-13T17:16:56.000Z</time>
      </trkpt>
      <trkpt lat="46.45731" lon="6.04545">
        <ele>1190.8</ele>
        <time>2012-08-13T17:16:59.000Z</time>
      </trkpt>
      <trkpt lat="46.45732" lon="6.04538">
        <ele>1191.7</ele>
        <time>2012-08-13T17:17:02.000Z</time>
      </trkpt>
      <trkpt lat="46.45733" lon="6.04531">
        <ele>1192.4</ele>
        <time>2012-08-13T17:17:06.000Z</time>
      </trkpt>
      <trkpt lat="46.4573" lon="6.04525">
        <ele>1192.5</ele>
        <time>2012-08-13T17:17:09.000Z</time>
      </trkpt>
      <trkpt lat="46.45726" lon="6.04522">
        <ele>1192.8</ele>
        <time>2012-08-13T17:17:14.000Z</time>
      </trkpt>
      <trkpt lat="46.45728" lon="6.04515">
        <ele>1191.6</ele>
        <time>2012-08-13T17:17:26.000Z</time>
      </trkpt>
      <trkpt lat="46.45728" lon="6.04507">
        <ele>1191.9</ele>
        <time>2012-08-13T17:17:29.000Z</time>
      </trkpt>
      <trkpt lat="46.45727" lon="6.045">
        <ele>1191.7</ele>
        <time>2012-08-13T17:17:31.000Z</time>
      </trkpt>
      <trkpt lat="46.45725" lon="6.04494">
        <ele>1191</ele>
        <time>2012-08-13T17:17:33.000Z</time>
      </trkpt>
      <trkpt lat="46.45724" lon="6.04487">
        <ele>1190.4</ele>
        <time>2012-08-13T17:17:35.000Z</time>
      </trkpt>
      <trkpt lat="46.45724" lon="6.0448">
        <ele>1190.7</ele>
        <time>2012-08-13T17:17:37.000Z</time>
      </trkpt>
      <trkpt lat="46.45724" lon="6.04473">
        <ele>1190.7</ele>
        <time>2012-08-13T17:17:40.000Z</time>
      </trkpt>
      <trkpt lat="46.45723" lon="6.04466">
        <ele>1191</ele>
        <time>2012-08-13T17:17:43.000Z</time>
      </trkpt>
      <trkpt lat="46.4572" lon="6.0446">
        <ele>1191.9</ele>
        <time>2012-08-13T17:17:45.000Z</time>
      </trkpt>
      <trkpt lat="46.45718" lon="6.04454">
        <ele>1191.5</ele>
        <time>2012-08-13T17:17:47.000Z</time>
      </trkpt>
      <trkpt lat="46.45715" lon="6.04448">
        <ele>1191.2</ele>
        <time>2012-08-13T17:17:49.000Z</time>
      </trkpt>
      <trkpt lat="46.45712" lon="6.04441">
        <ele>1191</ele>
        <time>2012-08-13T17:17:52.000Z</time>
      </trkpt>
      <trkpt lat="46.4571" lon="6.04434">
        <ele>1193.1</ele>
        <time>2012-08-13T17:17:56.000Z</time>
      </trkpt>
      <trkpt lat="46.45707" lon="6.04427">
        <ele>1192.6</ele>
        <time>2012-08-13T17:17:59.000Z</time>
      </trkpt>
      <trkpt lat="46.45705" lon="6.04419">
        <ele>1192.1</ele>
        <time>2012-08-13T17:18:02.000Z</time>
      </trkpt>
      <trkpt lat="46.45701" lon="6.04412">
        <ele>1191.8</ele>
        <time>2012-08-13T17:18:05.000Z</time>
      </trkpt>
      <trkpt lat="46.45699" lon="6.04405">
        <ele>1193.8</ele>
        <time>2012-08-13T17:18:08.000Z</time>
      </trkpt>
      <trkpt lat="46.45697" lon="6.04398">
        <ele>1195</ele>
        <time>2012-08-13T17:18:12.000Z</time>
      </trkpt>
      <trkpt lat="46.45696" lon="6.0439">
        <ele>1194.3</ele>
        <time>2012-08-13T17:18:16.000Z</time>
      </trkpt>
      <trkpt lat="46.45695" lon="6.04382">
        <ele>1196.1</ele>
        <time>2012-08-13T17:18:23.000Z</time>
      </trkpt>
      <trkpt lat="46.45694" lon="6.04375">
        <ele>1196.2</ele>
        <time>2012-08-13T17:18:28.000Z</time>
      </trkpt>
      <trkpt lat="46.45691" lon="6.04369">
        <ele>1198.9</ele>
        <time>2012-08-13T17:18:31.000Z</time>
      </trkpt>
      <trkpt lat="46.45689" lon="6.04362">
        <ele>1200.1</ele>
        <time>2012-08-13T17:18:34.000Z</time>
      </trkpt>
      <trkpt lat="46.45688" lon="6.04354">
        <ele>1202.5</ele>
        <time>2012-08-13T17:18:38.000Z</time>
      </trkpt>
      <trkpt lat="46.45687" lon="6.04346">
        <ele>1201.9</ele>
        <time>2012-08-13T17:18:44.000Z</time>
      </trkpt>
      <trkpt lat="46.45689" lon="6.04339">
        <ele>1201.4</ele>
        <time>2012-08-13T17:18:48.000Z</time>
      </trkpt>
      <trkpt lat="46.4569" lon="6.04331">
        <ele>1202.4</ele>
        <time>2012-08-13T17:18:52.000Z</time>
      </trkpt>
      <trkpt lat="46.45688" lon="6.04322">
        <ele>1204.2</ele>
        <time>2012-08-13T17:18:56.000Z</time>
      </trkpt>
      <trkpt lat="46.45687" lon="6.04316">
        <ele>1203.8</ele>
        <time>2012-08-13T17:19:00.000Z</time>
      </trkpt>
      <trkpt lat="46.45685" lon="6.04309">
        <ele>1203.5</ele>
        <time>2012-08-13T17:19:05.000Z</time>
      </trkpt>
      <trkpt lat="46.45686" lon="6.043">
        <ele>1205.3</ele>
        <time>2012-08-13T17:19:09.000Z</time>
      </trkpt>
      <trkpt lat="46.45687" lon="6.04292">
        <ele>1207.9</ele>
        <time>2012-08-13T17:19:24.000Z</time>
      </trkpt>
      <trkpt lat="46.45689" lon="6.04285">
        <ele>1207.6</ele>
        <time>2012-08-13T17:19:27.000Z</time>
      </trkpt>
      <trkpt lat="46.4569" lon="6.04276">
        <ele>1206.2</ele>
        <time>2012-08-13T17:19:30.000Z</time>
      </trkpt>
      <trkpt lat="46.45689" lon="6.04268">
        <ele>1206.2</ele>
        <time>2012-08-13T17:19:33.000Z</time>
      </trkpt>
      <trkpt lat="46.45676" lon="6.0425">
        <ele>1204.8</ele>
        <time>2012-08-13T17:19:43.000Z</time>
      </trkpt>
      <trkpt lat="46.45673" lon="6.04242">
        <ele>1203.5</ele>
        <time>2012-08-13T17:19:45.000Z</time>
      </trkpt>
      <trkpt lat="46.4567" lon="6.04235">
        <ele>1204.7</ele>
        <time>2012-08-13T17:19:47.000Z</time>
      </trkpt>
      <trkpt lat="46.45667" lon="6.04228">
        <ele>1205.3</ele>
        <time>2012-08-13T17:19:50.000Z</time>
      </trkpt>
      <trkpt lat="46.45663" lon="6.04225">
        <ele>1205.7</ele>
        <time>2012-08-13T17:19:54.000Z</time>
      </trkpt>
      <trkpt lat="46.45658" lon="6.04222">
        <ele>1205.9</ele>
        <time>2012-08-13T17:19:58.000Z</time>
      </trkpt>
      <trkpt lat="46.45654" lon="6.04218">
        <ele>1206.5</ele>
        <time>2012-08-13T17:20:01.000Z</time>
      </trkpt>
      <trkpt lat="46.45649" lon="6.04218">
        <ele>1206</ele>
        <time>2012-08-13T17:20:05.000Z</time>
      </trkpt>
      <trkpt lat="46.45646" lon="6.04212">
        <ele>1204.5</ele>
        <time>2012-08-13T17:20:09.000Z</time>
      </trkpt>
      <trkpt lat="46.45645" lon="6.04205">
        <ele>1205.8</ele>
        <time>2012-08-13T17:20:12.000Z</time>
      </trkpt>
      <trkpt lat="46.45642" lon="6.04199">
        <ele>1209.2</ele>
        <time>2012-08-13T17:20:16.000Z</time>
      </trkpt>
      <trkpt lat="46.45639" lon="6.04194">
        <ele>1209.5</ele>
        <time>2012-08-13T17:20:19.000Z</time>
      </trkpt>
      <trkpt lat="46.45636" lon="6.04188">
        <ele>1207.5</ele>
        <time>2012-08-13T17:20:23.000Z</time>
      </trkpt>
      <trkpt lat="46.45632" lon="6.04185">
        <ele>1206.7</ele>
        <time>2012-08-13T17:20:26.000Z</time>
      </trkpt>
      <trkpt lat="46.45626" lon="6.04182">
        <ele>1206.7</ele>
        <time>2012-08-13T17:20:29.000Z</time>
      </trkpt>
      <trkpt lat="46.45621" lon="6.04178">
        <ele>1206.1</ele>
        <time>2012-08-13T17:20:32.000Z</time>
      </trkpt>
      <trkpt lat="46.45621" lon="6.04169">
        <ele>1202.1</ele>
        <time>2012-08-13T17:20:35.000Z</time>
      </trkpt>
      <trkpt lat="46.45623" lon="6.0416">
        <ele>1203.5</ele>
        <time>2012-08-13T17:20:37.000Z</time>
      </trkpt>
      <trkpt lat="46.45625" lon="6.04152">
        <ele>1205.6</ele>
        <time>2012-08-13T17:20:39.000Z</time>
      </trkpt>
      <trkpt lat="46.45629" lon="6.04145">
        <ele>1207.1</ele>
        <time>2012-08-13T17:20:42.000Z</time>
      </trkpt>
      <trkpt lat="46.45632" lon="6.04139">
        <ele>1209.3</ele>
        <time>2012-08-13T17:20:45.000Z</time>
      </trkpt>
      <trkpt lat="46.45636" lon="6.0413">
        <ele>1210.1</ele>
        <time>2012-08-13T17:20:48.000Z</time>
      </trkpt>
      <trkpt lat="46.45639" lon="6.04125">
        <ele>1210.8</ele>
        <time>2012-08-13T17:20:50.000Z</time>
      </trkpt>
      <trkpt lat="46.45644" lon="6.04119">
        <ele>1209.9</ele>
        <time>2012-08-13T17:20:53.000Z</time>
      </trkpt>
      <trkpt lat="46.45649" lon="6.04113">
        <ele>1210.7</ele>
        <time>2012-08-13T17:20:56.000Z</time>
      </trkpt>
      <trkpt lat="46.45655" lon="6.04109">
        <ele>1211.8</ele>
        <time>2012-08-13T17:20:59.000Z</time>
      </trkpt>
      <trkpt lat="46.45659" lon="6.04105">
        <ele>1211.5</ele>
        <time>2012-08-13T17:21:01.000Z</time>
      </trkpt>
      <trkpt lat="46.45662" lon="6.04098">
        <ele>1210.7</ele>
        <time>2012-08-13T17:21:04.000Z</time>
      </trkpt>
      <trkpt lat="46.45664" lon="6.04091">
        <ele>1208.9</ele>
        <time>2012-08-13T17:21:08.000Z</time>
      </trkpt>
      <trkpt lat="46.45667" lon="6.04085">
        <ele>1209.2</ele>
        <time>2012-08-13T17:21:11.000Z</time>
      </trkpt>
      <trkpt lat="46.45669" lon="6.04078">
        <ele>1211.1</ele>
        <time>2012-08-13T17:21:14.000Z</time>
      </trkpt>
      <trkpt lat="46.45673" lon="6.04071">
        <ele>1211.2</ele>
        <time>2012-08-13T17:21:17.000Z</time>
      </trkpt>
      <trkpt lat="46.45676" lon="6.04065">
        <ele>1211.5</ele>
        <time>2012-08-13T17:21:19.000Z</time>
      </trkpt>
      <trkpt lat="46.4568" lon="6.04057">
        <ele>1212.2</ele>
        <time>2012-08-13T17:21:22.000Z</time>
      </trkpt>
      <trkpt lat="46.45682" lon="6.04048">
        <ele>1211.9</ele>
        <time>2012-08-13T17:21:25.000Z</time>
      </trkpt>
      <trkpt lat="46.45682" lon="6.04038">
        <ele>1212.9</ele>
        <time>2012-08-13T17:21:28.000Z</time>
      </trkpt>
      <trkpt lat="46.45684" lon="6.0403">
        <ele>1210.7</ele>
        <time>2012-08-13T17:21:31.000Z</time>
      </trkpt>
      <trkpt lat="46.45684" lon="6.04023">
        <ele>1212.4</ele>
        <time>2012-08-13T17:21:33.000Z</time>
      </trkpt>
      <trkpt lat="46.45683" lon="6.04014">
        <ele>1212.9</ele>
        <time>2012-08-13T17:21:36.000Z</time>
      </trkpt>
      <trkpt lat="46.45682" lon="6.04005">
        <ele>1214.2</ele>
        <time>2012-08-13T17:21:39.000Z</time>
      </trkpt>
      <trkpt lat="46.45681" lon="6.03997">
        <ele>1216.3</ele>
        <time>2012-08-13T17:21:42.000Z</time>
      </trkpt>
      <trkpt lat="46.4568" lon="6.03988">
        <ele>1217.6</ele>
        <time>2012-08-13T17:21:45.000Z</time>
      </trkpt>
      <trkpt lat="46.45679" lon="6.0398">
        <ele>1217.8</ele>
        <time>2012-08-13T17:21:47.000Z</time>
      </trkpt>
      <trkpt lat="46.45676" lon="6.03972">
        <ele>1217.6</ele>
        <time>2012-08-13T17:21:49.000Z</time>
      </trkpt>
      <trkpt lat="46.45673" lon="6.03963">
        <ele>1217.4</ele>
        <time>2012-08-13T17:21:52.000Z</time>
      </trkpt>
      <trkpt lat="46.45671" lon="6.03955">
        <ele>1217.5</ele>
        <time>2012-08-13T17:21:55.000Z</time>
      </trkpt>
      <trkpt lat="46.45673" lon="6.03946">
        <ele>1217.3</ele>
        <time>2012-08-13T17:21:58.000Z</time>
      </trkpt>
      <trkpt lat="46.45674" lon="6.0394">
        <ele>1218.2</ele>
        <time>2012-08-13T17:22:00.000Z</time>
      </trkpt>
      <trkpt lat="46.45676" lon="6.03932">
        <ele>1217.9</ele>
        <time>2012-08-13T17:22:02.250Z</time>
      </trkpt>
      <trkpt lat="46.45678" lon="6.03925">
        <ele>1221.9</ele>
        <time>2012-08-13T17:22:05.000Z</time>
      </trkpt>
      <trkpt lat="46.45679" lon="6.03918">
        <ele>1221.4</ele>
        <time>2012-08-13T17:22:08.000Z</time>
      </trkpt>
      <trkpt lat="46.45682" lon="6.0391">
        <ele>1219.2</ele>
        <time>2012-08-13T17:22:11.000Z</time>
      </trkpt>
      <trkpt lat="46.45684" lon="6.03902">
        <ele>1219.6</ele>
        <time>2012-08-13T17:22:16.000Z</time>
      </trkpt>
      <trkpt lat="46.45684" lon="6.03891">
        <ele>1219.8</ele>
        <time>2012-08-13T17:22:19.000Z</time>
      </trkpt>
      <trkpt lat="46.45683" lon="6.03883">
        <ele>1220.7</ele>
        <time>2012-08-13T17:22:21.000Z</time>
      </trkpt>
      <trkpt lat="46.45683" lon="6.03876">
        <ele>1220.6</ele>
        <time>2012-08-13T17:22:23.000Z</time>
      </trkpt>
      <trkpt lat="46.4568" lon="6.03867">
        <ele>1221.1</ele>
        <time>2012-08-13T17:22:26.000Z</time>
      </trkpt>
      <trkpt lat="46.45676" lon="6.0386">
        <ele>1222.5</ele>
        <time>2012-08-13T17:22:29.000Z</time>
      </trkpt>
      <trkpt lat="46.45672" lon="6.03856">
        <ele>1222.4</ele>
        <time>2012-08-13T17:22:34.000Z</time>
      </trkpt>
      <trkpt lat="46.45667" lon="6.03855">
        <ele>1223.4</ele>
        <time>2012-08-13T17:22:40.000Z</time>
      </trkpt>
      <trkpt lat="46.45662" lon="6.03855">
        <ele>1222.8</ele>
        <time>2012-08-13T17:22:48.000Z</time>
      </trkpt>
      <trkpt lat="46.45655" lon="6.03856">
        <ele>1221.7</ele>
        <time>2012-08-13T17:22:51.000Z</time>
      </trkpt>
      <trkpt lat="46.45649" lon="6.03857">
        <ele>1223.3</ele>
        <time>2012-08-13T17:22:54.000Z</time>
      </trkpt>
      <trkpt lat="46.45644" lon="6.03857">
        <ele>1223.5</ele>
        <time>2012-08-13T17:22:56.000Z</time>
      </trkpt>
      <trkpt lat="46.45638" lon="6.03857">
        <ele>1225</ele>
        <time>2012-08-13T17:22:58.000Z</time>
      </trkpt>
      <trkpt lat="46.45633" lon="6.03856">
        <ele>1226.5</ele>
        <time>2012-08-13T17:23:00.000Z</time>
      </trkpt>
      <trkpt lat="46.45627" lon="6.03856">
        <ele>1226.3</ele>
        <time>2012-08-13T17:23:03.000Z</time>
      </trkpt>
      <trkpt lat="46.45621" lon="6.03856">
        <ele>1227.1</ele>
        <time>2012-08-13T17:23:07.000Z</time>
      </trkpt>
      <trkpt lat="46.45619" lon="6.03849">
        <ele>1229.8</ele>
        <time>2012-08-13T17:23:13.000Z</time>
      </trkpt>
      <trkpt lat="46.45618" lon="6.03841">
        <ele>1232.2</ele>
        <time>2012-08-13T17:23:17.000Z</time>
      </trkpt>
      <trkpt lat="46.45618" lon="6.03832">
        <ele>1232.8</ele>
        <time>2012-08-13T17:23:20.000Z</time>
      </trkpt>
      <trkpt lat="46.45621" lon="6.03826">
        <ele>1233.1</ele>
        <time>2012-08-13T17:23:23.000Z</time>
      </trkpt>
      <trkpt lat="46.45624" lon="6.0382">
        <ele>1236.6</ele>
        <time>2012-08-13T17:23:26.000Z</time>
      </trkpt>
      <trkpt lat="46.45628" lon="6.03815">
        <ele>1237.6</ele>
        <time>2012-08-13T17:23:29.000Z</time>
      </trkpt>
      <trkpt lat="46.45632" lon="6.03808">
        <ele>1237.6</ele>
        <time>2012-08-13T17:23:32.000Z</time>
      </trkpt>
      <trkpt lat="46.45635" lon="6.03801">
        <ele>1236.5</ele>
        <time>2012-08-13T17:23:35.000Z</time>
      </trkpt>
      <trkpt lat="46.45638" lon="6.03795">
        <ele>1236.5</ele>
        <time>2012-08-13T17:23:37.000Z</time>
      </trkpt>
      <trkpt lat="46.45641" lon="6.03791">
        <ele>1236.5</ele>
        <time>2012-08-13T17:23:39.000Z</time>
      </trkpt>
      <trkpt lat="46.45646" lon="6.03784">
        <ele>1236.5</ele>
        <time>2012-08-13T17:23:42.000Z</time>
      </trkpt>
      <trkpt lat="46.4565" lon="6.03779">
        <ele>1237.8</ele>
        <time>2012-08-13T17:23:45.000Z</time>
      </trkpt>
      <trkpt lat="46.45655" lon="6.03776">
        <ele>1235.7</ele>
        <time>2012-08-13T17:23:48.000Z</time>
      </trkpt>
      <trkpt lat="46.45661" lon="6.03774">
        <ele>1232.5</ele>
        <time>2012-08-13T17:23:51.000Z</time>
      </trkpt>
      <trkpt lat="46.45667" lon="6.03771">
        <ele>1232.7</ele>
        <time>2012-08-13T17:23:54.000Z</time>
      </trkpt>
      <trkpt lat="46.45672" lon="6.0377">
        <ele>1232.7</ele>
        <time>2012-08-13T17:23:57.000Z</time>
      </trkpt>
      <trkpt lat="46.45677" lon="6.03767">
        <ele>1231.8</ele>
        <time>2012-08-13T17:24:00.000Z</time>
      </trkpt>
      <trkpt lat="46.45684" lon="6.03768">
        <ele>1231.2</ele>
        <time>2012-08-13T17:24:03.000Z</time>
      </trkpt>
      <trkpt lat="46.45688" lon="6.03771">
        <ele>1230.4</ele>
        <time>2012-08-13T17:24:07.000Z</time>
      </trkpt>
      <trkpt lat="46.45693" lon="6.03771">
        <ele>1230.5</ele>
        <time>2012-08-13T17:24:15.000Z</time>
      </trkpt>
      <trkpt lat="46.45698" lon="6.0377">
        <ele>1229.4</ele>
        <time>2012-08-13T17:24:21.000Z</time>
      </trkpt>
      <trkpt lat="46.45704" lon="6.03768">
        <ele>1227.5</ele>
        <time>2012-08-13T17:24:24.000Z</time>
      </trkpt>
      <trkpt lat="46.45709" lon="6.03768">
        <ele>1226</ele>
        <time>2012-08-13T17:24:26.000Z</time>
      </trkpt>
      <trkpt lat="46.45715" lon="6.03768">
        <ele>1224.9</ele>
        <time>2012-08-13T17:24:28.000Z</time>
      </trkpt>
      <trkpt lat="46.45722" lon="6.03767">
        <ele>1226.2</ele>
        <time>2012-08-13T17:24:30.000Z</time>
      </trkpt>
      <trkpt lat="46.45729" lon="6.03766">
        <ele>1228</ele>
        <time>2012-08-13T17:24:32.000Z</time>
      </trkpt>
      <trkpt lat="46.45734" lon="6.03764">
        <ele>1222.1</ele>
        <time>2012-08-13T17:24:34.000Z</time>
      </trkpt>
      <trkpt lat="46.4574" lon="6.03762">
        <ele>1220.5</ele>
        <time>2012-08-13T17:24:36.000Z</time>
      </trkpt>
      <trkpt lat="46.45744" lon="6.03759">
        <ele>1213.6</ele>
        <time>2012-08-13T17:24:38.000Z</time>
      </trkpt>
      <trkpt lat="46.45749" lon="6.03758">
        <ele>1212.6</ele>
        <time>2012-08-13T17:24:40.000Z</time>
      </trkpt>
      <trkpt lat="46.45754" lon="6.03757">
        <ele>1211.8</ele>
        <time>2012-08-13T17:24:42.000Z</time>
      </trkpt>
      <trkpt lat="46.45758" lon="6.03755">
        <ele>1211.8</ele>
        <time>2012-08-13T17:24:44.000Z</time>
      </trkpt>
      <trkpt lat="46.45763" lon="6.03753">
        <ele>1209.4</ele>
        <time>2012-08-13T17:24:46.000Z</time>
      </trkpt>
      <trkpt lat="46.45767" lon="6.0375">
        <ele>1208.7</ele>
        <time>2012-08-13T17:24:48.000Z</time>
      </trkpt>
      <trkpt lat="46.45773" lon="6.03745">
        <ele>1207.5</ele>
        <time>2012-08-13T17:24:51.000Z</time>
      </trkpt>
      <trkpt lat="46.45777" lon="6.03741">
        <ele>1204.6</ele>
        <time>2012-08-13T17:24:53.000Z</time>
      </trkpt>
      <trkpt lat="46.45781" lon="6.03737">
        <ele>1203.6</ele>
        <time>2012-08-13T17:24:55.000Z</time>
      </trkpt>
      <trkpt lat="46.45786" lon="6.03734">
        <ele>1202.9</ele>
        <time>2012-08-13T17:24:57.000Z</time>
      </trkpt>
      <trkpt lat="46.4579" lon="6.0373">
        <ele>1203.6</ele>
        <time>2012-08-13T17:24:59.000Z</time>
      </trkpt>
      <trkpt lat="46.45795" lon="6.03725">
        <ele>1205</ele>
        <time>2012-08-13T17:25:02.247Z</time>
      </trkpt>
      <trkpt lat="46.458" lon="6.03723">
        <ele>1205.1</ele>
        <time>2012-08-13T17:25:05.000Z</time>
      </trkpt>
      <trkpt lat="46.45805" lon="6.03718">
        <ele>1203.5</ele>
        <time>2012-08-13T17:25:08.000Z</time>
      </trkpt>
      <trkpt lat="46.4581" lon="6.03715">
        <ele>1203.5</ele>
        <time>2012-08-13T17:25:10.000Z</time>
      </trkpt>
      <trkpt lat="46.45815" lon="6.03711">
        <ele>1204.4</ele>
        <time>2012-08-13T17:25:12.000Z</time>
      </trkpt>
      <trkpt lat="46.4582" lon="6.03707">
        <ele>1203.8</ele>
        <time>2012-08-13T17:25:14.000Z</time>
      </trkpt>
      <trkpt lat="46.45824" lon="6.03706">
        <ele>1204.5</ele>
        <time>2012-08-13T17:25:16.000Z</time>
      </trkpt>
      <trkpt lat="46.4583" lon="6.03703">
        <ele>1206.1</ele>
        <time>2012-08-13T17:25:19.000Z</time>
      </trkpt>
      <trkpt lat="46.45834" lon="6.037">
        <ele>1204.9</ele>
        <time>2012-08-13T17:25:22.000Z</time>
      </trkpt>
      <trkpt lat="46.45837" lon="6.03694">
        <ele>1202.2</ele>
        <time>2012-08-13T17:25:25.000Z</time>
      </trkpt>
      <trkpt lat="46.45842" lon="6.03689">
        <ele>1204.2</ele>
        <time>2012-08-13T17:25:28.000Z</time>
      </trkpt>
      <trkpt lat="46.45846" lon="6.03685">
        <ele>1205.7</ele>
        <time>2012-08-13T17:25:30.000Z</time>
      </trkpt>
      <trkpt lat="46.45849" lon="6.0368">
        <ele>1205.7</ele>
        <time>2012-08-13T17:25:32.000Z</time>
      </trkpt>
      <trkpt lat="46.45854" lon="6.03676">
        <ele>1207.6</ele>
        <time>2012-08-13T17:25:34.000Z</time>
      </trkpt>
      <trkpt lat="46.45858" lon="6.03672">
        <ele>1209.2</ele>
        <time>2012-08-13T17:25:36.000Z</time>
      </trkpt>
      <trkpt lat="46.45862" lon="6.03668">
        <ele>1208.9</ele>
        <time>2012-08-13T17:25:38.000Z</time>
      </trkpt>
      <trkpt lat="46.45868" lon="6.03663">
        <ele>1209.9</ele>
        <time>2012-08-13T17:25:41.000Z</time>
      </trkpt>
      <trkpt lat="46.45873" lon="6.03658">
        <ele>1210.3</ele>
        <time>2012-08-13T17:25:44.000Z</time>
      </trkpt>
      <trkpt lat="46.45877" lon="6.03654">
        <ele>1210.3</ele>
        <time>2012-08-13T17:25:46.000Z</time>
      </trkpt>
      <trkpt lat="46.4588" lon="6.03647">
        <ele>1208.9</ele>
        <time>2012-08-13T17:25:49.000Z</time>
      </trkpt>
      <trkpt lat="46.4588" lon="6.0364">
        <ele>1204.8</ele>
        <time>2012-08-13T17:25:53.000Z</time>
      </trkpt>
      <trkpt lat="46.45881" lon="6.03634">
        <ele>1205.1</ele>
        <time>2012-08-13T17:25:57.000Z</time>
      </trkpt>
      <trkpt lat="46.45878" lon="6.03627">
        <ele>1203.5</ele>
        <time>2012-08-13T17:26:02.223Z</time>
      </trkpt>
      <trkpt lat="46.45875" lon="6.03614">
        <ele>1199.8</ele>
        <time>2012-08-13T17:26:07.000Z</time>
      </trkpt>
      <trkpt lat="46.45875" lon="6.03605">
        <ele>1199.8</ele>
        <time>2012-08-13T17:26:10.000Z</time>
      </trkpt>
      <trkpt lat="46.45875" lon="6.03598">
        <ele>1199.7</ele>
        <time>2012-08-13T17:26:13.000Z</time>
      </trkpt>
      <trkpt lat="46.45872" lon="6.03592">
        <ele>1199.7</ele>
        <time>2012-08-13T17:26:17.000Z</time>
      </trkpt>
      <trkpt lat="46.45869" lon="6.03585">
        <ele>1199.7</ele>
        <time>2012-08-13T17:26:21.000Z</time>
      </trkpt>
      <trkpt lat="46.45867" lon="6.03576">
        <ele>1198.5</ele>
        <time>2012-08-13T17:26:25.000Z</time>
      </trkpt>
      <trkpt lat="46.45869" lon="6.03563">
        <ele>1198.1</ele>
        <time>2012-08-13T17:26:27.000Z</time>
      </trkpt>
      <trkpt lat="46.45872" lon="6.03554">
        <ele>1198.1</ele>
        <time>2012-08-13T17:26:29.000Z</time>
      </trkpt>
      <trkpt lat="46.45875" lon="6.03546">
        <ele>1199.2</ele>
        <time>2012-08-13T17:26:31.000Z</time>
      </trkpt>
      <trkpt lat="46.45877" lon="6.0354">
        <ele>1201.6</ele>
        <time>2012-08-13T17:26:33.000Z</time>
      </trkpt>
      <trkpt lat="46.45882" lon="6.03535">
        <ele>1200.7</ele>
        <time>2012-08-13T17:26:37.000Z</time>
      </trkpt>
      <trkpt lat="46.45887" lon="6.03532">
        <ele>1199.6</ele>
        <time>2012-08-13T17:26:41.000Z</time>
      </trkpt>
      <trkpt lat="46.4589" lon="6.03526">
        <ele>1198.3</ele>
        <time>2012-08-13T17:26:45.000Z</time>
      </trkpt>
      <trkpt lat="46.45893" lon="6.0352">
        <ele>1197.4</ele>
        <time>2012-08-13T17:26:49.000Z</time>
      </trkpt>
      <trkpt lat="46.45898" lon="6.03514">
        <ele>1196.8</ele>
        <time>2012-08-13T17:26:53.000Z</time>
      </trkpt>
      <trkpt lat="46.45901" lon="6.03509">
        <ele>1198.2</ele>
        <time>2012-08-13T17:26:56.000Z</time>
      </trkpt>
      <trkpt lat="46.45906" lon="6.03503">
        <ele>1197.7</ele>
        <time>2012-08-13T17:26:59.000Z</time>
      </trkpt>
      <trkpt lat="46.45909" lon="6.03496">
        <ele>1197.3</ele>
        <time>2012-08-13T17:27:02.228Z</time>
      </trkpt>
      <trkpt lat="46.45908" lon="6.03489">
        <ele>1195.6</ele>
        <time>2012-08-13T17:27:07.000Z</time>
      </trkpt>
      <trkpt lat="46.45907" lon="6.03482">
        <ele>1196.4</ele>
        <time>2012-08-13T17:27:12.000Z</time>
      </trkpt>
      <trkpt lat="46.45906" lon="6.03473">
        <ele>1198.7</ele>
        <time>2012-08-13T17:27:16.000Z</time>
      </trkpt>
      <trkpt lat="46.45905" lon="6.03467">
        <ele>1199.5</ele>
        <time>2012-08-13T17:27:20.000Z</time>
      </trkpt>
      <trkpt lat="46.45902" lon="6.0346">
        <ele>1199.8</ele>
        <time>2012-08-13T17:27:25.000Z</time>
      </trkpt>
      <trkpt lat="46.45898" lon="6.03456">
        <ele>1199.9</ele>
        <time>2012-08-13T17:27:28.000Z</time>
      </trkpt>
      <trkpt lat="46.45895" lon="6.03451">
        <ele>1199.4</ele>
        <time>2012-08-13T17:27:31.000Z</time>
      </trkpt>
      <trkpt lat="46.45892" lon="6.03443">
        <ele>1198.7</ele>
        <time>2012-08-13T17:27:34.000Z</time>
      </trkpt>
      <trkpt lat="46.45889" lon="6.03436">
        <ele>1199.4</ele>
        <time>2012-08-13T17:27:37.000Z</time>
      </trkpt>
      <trkpt lat="46.45886" lon="6.0343">
        <ele>1199.8</ele>
        <time>2012-08-13T17:27:40.000Z</time>
      </trkpt>
      <trkpt lat="46.45883" lon="6.03424">
        <ele>1200.9</ele>
        <time>2012-08-13T17:27:43.000Z</time>
      </trkpt>
      <trkpt lat="46.4588" lon="6.03418">
        <ele>1199.9</ele>
        <time>2012-08-13T17:27:46.000Z</time>
      </trkpt>
      <trkpt lat="46.45877" lon="6.03412">
        <ele>1202.1</ele>
        <time>2012-08-13T17:27:50.000Z</time>
      </trkpt>
      <trkpt lat="46.45874" lon="6.03404">
        <ele>1202.4</ele>
        <time>2012-08-13T17:27:54.000Z</time>
      </trkpt>
      <trkpt lat="46.45873" lon="6.03397">
        <ele>1203.6</ele>
        <time>2012-08-13T17:27:57.000Z</time>
      </trkpt>
      <trkpt lat="46.45871" lon="6.0339">
        <ele>1205.2</ele>
        <time>2012-08-13T17:28:00.000Z</time>
      </trkpt>
      <trkpt lat="46.4587" lon="6.03382">
        <ele>1203.1</ele>
        <time>2012-08-13T17:28:04.000Z</time>
      </trkpt>
      <trkpt lat="46.4587" lon="6.03375">
        <ele>1202.5</ele>
        <time>2012-08-13T17:28:08.000Z</time>
      </trkpt>
      <trkpt lat="46.4587" lon="6.03368">
        <ele>1199</ele>
        <time>2012-08-13T17:28:12.000Z</time>
      </trkpt>
      <trkpt lat="46.45872" lon="6.03359">
        <ele>1194.2</ele>
        <time>2012-08-13T17:28:16.000Z</time>
      </trkpt>
      <trkpt lat="46.45874" lon="6.03352">
        <ele>1196.2</ele>
        <time>2012-08-13T17:28:18.000Z</time>
      </trkpt>
      <trkpt lat="46.45875" lon="6.03345">
        <ele>1196.7</ele>
        <time>2012-08-13T17:28:20.000Z</time>
      </trkpt>
      <trkpt lat="46.45877" lon="6.03337">
        <ele>1199.1</ele>
        <time>2012-08-13T17:28:23.000Z</time>
      </trkpt>
      <trkpt lat="46.4588" lon="6.03329">
        <ele>1200.1</ele>
        <time>2012-08-13T17:28:26.000Z</time>
      </trkpt>
      <trkpt lat="46.45881" lon="6.03321">
        <ele>1200.2</ele>
        <time>2012-08-13T17:28:29.000Z</time>
      </trkpt>
      <trkpt lat="46.45881" lon="6.03313">
        <ele>1201.1</ele>
        <time>2012-08-13T17:28:32.000Z</time>
      </trkpt>
      <trkpt lat="46.45881" lon="6.03303">
        <ele>1200.1</ele>
        <time>2012-08-13T17:28:35.000Z</time>
      </trkpt>
      <trkpt lat="46.45881" lon="6.03294">
        <ele>1200.3</ele>
        <time>2012-08-13T17:28:38.000Z</time>
      </trkpt>
      <trkpt lat="46.4588" lon="6.03285">
        <ele>1200.7</ele>
        <time>2012-08-13T17:28:41.000Z</time>
      </trkpt>
      <trkpt lat="46.45878" lon="6.03277">
        <ele>1200.9</ele>
        <time>2012-08-13T17:28:44.000Z</time>
      </trkpt>
      <trkpt lat="46.45877" lon="6.03268">
        <ele>1200.3</ele>
        <time>2012-08-13T17:28:47.000Z</time>
      </trkpt>
      <trkpt lat="46.45875" lon="6.0326">
        <ele>1197.8</ele>
        <time>2012-08-13T17:28:50.000Z</time>
      </trkpt>
      <trkpt lat="46.45872" lon="6.03252">
        <ele>1198.2</ele>
        <time>2012-08-13T17:28:52.000Z</time>
      </trkpt>
      <trkpt lat="46.4587" lon="6.03246">
        <ele>1196.6</ele>
        <time>2012-08-13T17:28:59.000Z</time>
      </trkpt>
      <trkpt lat="46.45868" lon="6.03239">
        <ele>1198.9</ele>
        <time>2012-08-13T17:29:07.000Z</time>
      </trkpt>
      <trkpt lat="46.45866" lon="6.03232">
        <ele>1198.7</ele>
        <time>2012-08-13T17:29:09.000Z</time>
      </trkpt>
      <trkpt lat="46.45864" lon="6.03224">
        <ele>1199.8</ele>
        <time>2012-08-13T17:29:12.000Z</time>
      </trkpt>
      <trkpt lat="46.45862" lon="6.03217">
        <ele>1198.2</ele>
        <time>2012-08-13T17:29:20.000Z</time>
      </trkpt>
      <trkpt lat="46.45858" lon="6.03212">
        <ele>1194.4</ele>
        <time>2012-08-13T17:29:31.000Z</time>
      </trkpt>
      <trkpt lat="46.45854" lon="6.03206">
        <ele>1193.2</ele>
        <time>2012-08-13T17:29:35.000Z</time>
      </trkpt>
      <trkpt lat="46.45849" lon="6.032">
        <ele>1192.3</ele>
        <time>2012-08-13T17:29:38.000Z</time>
      </trkpt>
      <trkpt lat="46.45845" lon="6.03196">
        <ele>1191.6</ele>
        <time>2012-08-13T17:29:40.000Z</time>
      </trkpt>
      <trkpt lat="46.4584" lon="6.03191">
        <ele>1191.1</ele>
        <time>2012-08-13T17:29:42.000Z</time>
      </trkpt>
      <trkpt lat="46.45835" lon="6.03187">
        <ele>1191.3</ele>
        <time>2012-08-13T17:29:44.000Z</time>
      </trkpt>
      <trkpt lat="46.45831" lon="6.03183">
        <ele>1195</ele>
        <time>2012-08-13T17:29:46.000Z</time>
      </trkpt>
      <trkpt lat="46.45827" lon="6.03178">
        <ele>1196.2</ele>
        <time>2012-08-13T17:29:48.000Z</time>
      </trkpt>
      <trkpt lat="46.45823" lon="6.03172">
        <ele>1197.1</ele>
        <time>2012-08-13T17:29:50.000Z</time>
      </trkpt>
      <trkpt lat="46.45819" lon="6.03166">
        <ele>1197.1</ele>
        <time>2012-08-13T17:29:52.000Z</time>
      </trkpt>
      <trkpt lat="46.45814" lon="6.03161">
        <ele>1197.3</ele>
        <time>2012-08-13T17:29:54.000Z</time>
      </trkpt>
      <trkpt lat="46.4581" lon="6.03155">
        <ele>1195.2</ele>
        <time>2012-08-13T17:29:56.000Z</time>
      </trkpt>
      <trkpt lat="46.45779" lon="6.03074">
        <ele>1192.8</ele>
        <time>2012-08-13T17:30:18.000Z</time>
      </trkpt>
      <trkpt lat="46.45776" lon="6.03067">
        <ele>1193.7</ele>
        <time>2012-08-13T17:30:20.000Z</time>
      </trkpt>
      <trkpt lat="46.45774" lon="6.03058">
        <ele>1193.3</ele>
        <time>2012-08-13T17:30:26.000Z</time>
      </trkpt>
      <trkpt lat="46.45778" lon="6.03052">
        <ele>1191.5</ele>
        <time>2012-08-13T17:30:33.000Z</time>
      </trkpt>
      <trkpt lat="46.45782" lon="6.03048">
        <ele>1192</ele>
        <time>2012-08-13T17:30:36.000Z</time>
      </trkpt>
      <trkpt lat="46.45784" lon="6.03042">
        <ele>1191.4</ele>
        <time>2012-08-13T17:30:38.000Z</time>
      </trkpt>
      <trkpt lat="46.45787" lon="6.03037">
        <ele>1191.9</ele>
        <time>2012-08-13T17:30:41.000Z</time>
      </trkpt>
      <trkpt lat="46.45791" lon="6.03032">
        <ele>1190.9</ele>
        <time>2012-08-13T17:30:44.000Z</time>
      </trkpt>
      <trkpt lat="46.45804" lon="6.02998">
        <ele>1191.6</ele>
        <time>2012-08-13T17:30:47.000Z</time>
      </trkpt>
      <trkpt lat="46.45806" lon="6.03004">
        <ele>1187.2</ele>
        <time>2012-08-13T17:30:52.000Z</time>
      </trkpt>
      <trkpt lat="46.45811" lon="6.03004">
        <ele>1184.7</ele>
        <time>2012-08-13T17:30:55.000Z</time>
      </trkpt>
      <trkpt lat="46.45816" lon="6.03002">
        <ele>1186</ele>
        <time>2012-08-13T17:30:58.000Z</time>
      </trkpt>
      <trkpt lat="46.45821" lon="6.02998">
        <ele>1183.7</ele>
        <time>2012-08-13T17:31:02.000Z</time>
      </trkpt>
      <trkpt lat="46.45826" lon="6.02995">
        <ele>1181.3</ele>
        <time>2012-08-13T17:31:06.000Z</time>
      </trkpt>
      <trkpt lat="46.45831" lon="6.02992">
        <ele>1178.5</ele>
        <time>2012-08-13T17:31:09.000Z</time>
      </trkpt>
      <trkpt lat="46.45834" lon="6.02988">
        <ele>1176.5</ele>
        <time>2012-08-13T17:31:11.000Z</time>
      </trkpt>
      <trkpt lat="46.45839" lon="6.02984">
        <ele>1173.8</ele>
        <time>2012-08-13T17:31:13.000Z</time>
      </trkpt>
      <trkpt lat="46.45844" lon="6.02979">
        <ele>1172.6</ele>
        <time>2012-08-13T17:31:16.000Z</time>
      </trkpt>
      <trkpt lat="46.45848" lon="6.02975">
        <ele>1172.9</ele>
        <time>2012-08-13T17:31:19.000Z</time>
      </trkpt>
      <trkpt lat="46.45853" lon="6.0297">
        <ele>1173.4</ele>
        <time>2012-08-13T17:31:22.000Z</time>
      </trkpt>
      <trkpt lat="46.45857" lon="6.02966">
        <ele>1173.9</ele>
        <time>2012-08-13T17:31:25.000Z</time>
      </trkpt>
      <trkpt lat="46.45861" lon="6.02962">
        <ele>1175.7</ele>
        <time>2012-08-13T17:31:30.000Z</time>
      </trkpt>
      <trkpt lat="46.45865" lon="6.0296">
        <ele>1173.4</ele>
        <time>2012-08-13T17:31:53.000Z</time>
      </trkpt>
      <trkpt lat="46.4587" lon="6.02954">
        <ele>1171.4</ele>
        <time>2012-08-13T17:32:15.000Z</time>
      </trkpt>
      <trkpt lat="46.45874" lon="6.02949">
        <ele>1171.5</ele>
        <time>2012-08-13T17:32:19.000Z</time>
      </trkpt>
      <trkpt lat="46.45879" lon="6.02946">
        <ele>1172.5</ele>
        <time>2012-08-13T17:32:25.000Z</time>
      </trkpt>
      <trkpt lat="46.45883" lon="6.02939">
        <ele>1172.7</ele>
        <time>2012-08-13T17:32:55.000Z</time>
      </trkpt>
      <trkpt lat="46.45887" lon="6.02932">
        <ele>1172.2</ele>
        <time>2012-08-13T17:32:58.000Z</time>
      </trkpt>
      <trkpt lat="46.45891" lon="6.02926">
        <ele>1172</ele>
        <time>2012-08-13T17:33:01.000Z</time>
      </trkpt>
      <trkpt lat="46.45895" lon="6.0292">
        <ele>1171.4</ele>
        <time>2012-08-13T17:33:04.000Z</time>
      </trkpt>
      <trkpt lat="46.45901" lon="6.02913">
        <ele>1170.8</ele>
        <time>2012-08-13T17:33:07.530Z</time>
      </trkpt>
      <trkpt lat="46.45904" lon="6.02909">
        <ele>1171</ele>
        <time>2012-08-13T17:33:10.000Z</time>
      </trkpt>
      <trkpt lat="46.45908" lon="6.02904">
        <ele>1171.3</ele>
        <time>2012-08-13T17:33:13.000Z</time>
      </trkpt>
      <trkpt lat="46.45913" lon="6.02898">
        <ele>1171.5</ele>
        <time>2012-08-13T17:33:16.000Z</time>
      </trkpt>
      <trkpt lat="46.45919" lon="6.02892">
        <ele>1172</ele>
        <time>2012-08-13T17:33:19.000Z</time>
      </trkpt>
      <trkpt lat="46.45922" lon="6.02887">
        <ele>1172.6</ele>
        <time>2012-08-13T17:33:21.000Z</time>
      </trkpt>
      <trkpt lat="46.45926" lon="6.02883">
        <ele>1173.1</ele>
        <time>2012-08-13T17:33:23.000Z</time>
      </trkpt>
      <trkpt lat="46.45931" lon="6.02877">
        <ele>1172.5</ele>
        <time>2012-08-13T17:33:26.000Z</time>
      </trkpt>
      <trkpt lat="46.45935" lon="6.02873">
        <ele>1172.4</ele>
        <time>2012-08-13T17:33:28.000Z</time>
      </trkpt>
      <trkpt lat="46.4594" lon="6.02868">
        <ele>1171.2</ele>
        <time>2012-08-13T17:33:31.000Z</time>
      </trkpt>
      <trkpt lat="46.45944" lon="6.02863">
        <ele>1170.8</ele>
        <time>2012-08-13T17:33:34.000Z</time>
      </trkpt>
      <trkpt lat="46.45947" lon="6.02856">
        <ele>1168.9</ele>
        <time>2012-08-13T17:33:37.000Z</time>
      </trkpt>
      <trkpt lat="46.4595" lon="6.02848">
        <ele>1170</ele>
        <time>2012-08-13T17:33:40.000Z</time>
      </trkpt>
      <trkpt lat="46.45949" lon="6.02839">
        <ele>1170.1</ele>
        <time>2012-08-13T17:33:43.000Z</time>
      </trkpt>
      <trkpt lat="46.45947" lon="6.02833">
        <ele>1169.5</ele>
        <time>2012-08-13T17:33:46.000Z</time>
      </trkpt>
      <trkpt lat="46.45944" lon="6.02827">
        <ele>1169.5</ele>
        <time>2012-08-13T17:33:49.000Z</time>
      </trkpt>
      <trkpt lat="46.45941" lon="6.0282">
        <ele>1170.5</ele>
        <time>2012-08-13T17:33:52.000Z</time>
      </trkpt>
      <trkpt lat="46.45939" lon="6.02814">
        <ele>1169.7</ele>
        <time>2012-08-13T17:33:55.000Z</time>
      </trkpt>
      <trkpt lat="46.45936" lon="6.02806">
        <ele>1168.6</ele>
        <time>2012-08-13T17:33:59.000Z</time>
      </trkpt>
      <trkpt lat="46.45934" lon="6.028">
        <ele>1168.6</ele>
        <time>2012-08-13T17:34:02.000Z</time>
      </trkpt>
      <trkpt lat="46.45931" lon="6.02794">
        <ele>1170</ele>
        <time>2012-08-13T17:34:06.000Z</time>
      </trkpt>
      <trkpt lat="46.45928" lon="6.02788">
        <ele>1170.4</ele>
        <time>2012-08-13T17:34:09.000Z</time>
      </trkpt>
      <trkpt lat="46.45925" lon="6.02781">
        <ele>1170.5</ele>
        <time>2012-08-13T17:34:12.000Z</time>
      </trkpt>
      <trkpt lat="46.45921" lon="6.02773">
        <ele>1169.7</ele>
        <time>2012-08-13T17:34:15.000Z</time>
      </trkpt>
      <trkpt lat="46.45917" lon="6.02765">
        <ele>1171.7</ele>
        <time>2012-08-13T17:34:18.000Z</time>
      </trkpt>
      <trkpt lat="46.45914" lon="6.0276">
        <ele>1170.4</ele>
        <time>2012-08-13T17:34:20.000Z</time>
      </trkpt>
      <trkpt lat="46.4591" lon="6.02754">
        <ele>1169.8</ele>
        <time>2012-08-13T17:34:22.000Z</time>
      </trkpt>
      <trkpt lat="46.45908" lon="6.02748">
        <ele>1169.5</ele>
        <time>2012-08-13T17:34:24.000Z</time>
      </trkpt>
      <trkpt lat="46.45904" lon="6.02743">
        <ele>1168.5</ele>
        <time>2012-08-13T17:34:26.000Z</time>
      </trkpt>
      <trkpt lat="46.45901" lon="6.02738">
        <ele>1168.5</ele>
        <time>2012-08-13T17:34:28.000Z</time>
      </trkpt>
      <trkpt lat="46.45896" lon="6.02731">
        <ele>1168.7</ele>
        <time>2012-08-13T17:34:31.000Z</time>
      </trkpt>
      <trkpt lat="46.45891" lon="6.02725">
        <ele>1168.7</ele>
        <time>2012-08-13T17:34:34.000Z</time>
      </trkpt>
      <trkpt lat="46.45886" lon="6.02719">
        <ele>1167.7</ele>
        <time>2012-08-13T17:34:37.000Z</time>
      </trkpt>
      <trkpt lat="46.45882" lon="6.02714">
        <ele>1167.9</ele>
        <time>2012-08-13T17:34:39.000Z</time>
      </trkpt>
      <trkpt lat="46.45879" lon="6.02709">
        <ele>1167.4</ele>
        <time>2012-08-13T17:34:41.000Z</time>
      </trkpt>
      <trkpt lat="46.45876" lon="6.02704">
        <ele>1166.4</ele>
        <time>2012-08-13T17:34:43.000Z</time>
      </trkpt>
      <trkpt lat="46.45872" lon="6.02699">
        <ele>1167.2</ele>
        <time>2012-08-13T17:34:45.000Z</time>
      </trkpt>
      <trkpt lat="46.45869" lon="6.02694">
        <ele>1168.3</ele>
        <time>2012-08-13T17:34:47.000Z</time>
      </trkpt>
      <trkpt lat="46.45864" lon="6.02688">
        <ele>1167.5</ele>
        <time>2012-08-13T17:34:50.000Z</time>
      </trkpt>
      <trkpt lat="46.4586" lon="6.02682">
        <ele>1167.3</ele>
        <time>2012-08-13T17:34:53.000Z</time>
      </trkpt>
      <trkpt lat="46.45856" lon="6.02675">
        <ele>1168.4</ele>
        <time>2012-08-13T17:34:56.000Z</time>
      </trkpt>
      <trkpt lat="46.45851" lon="6.02668">
        <ele>1168.6</ele>
        <time>2012-08-13T17:34:59.000Z</time>
      </trkpt>
      <trkpt lat="46.45847" lon="6.02662">
        <ele>1169.7</ele>
        <time>2012-08-13T17:35:02.000Z</time>
      </trkpt>
      <trkpt lat="46.45842" lon="6.02655">
        <ele>1169.9</ele>
        <time>2012-08-13T17:35:05.000Z</time>
      </trkpt>
      <trkpt lat="46.45839" lon="6.02649">
        <ele>1168.8</ele>
        <time>2012-08-13T17:35:09.000Z</time>
      </trkpt>
      <trkpt lat="46.45834" lon="6.02643">
        <ele>1168.6</ele>
        <time>2012-08-13T17:35:13.000Z</time>
      </trkpt>
      <trkpt lat="46.4583" lon="6.02638">
        <ele>1169.6</ele>
        <time>2012-08-13T17:35:15.000Z</time>
      </trkpt>
      <trkpt lat="46.45827" lon="6.02633">
        <ele>1169.7</ele>
        <time>2012-08-13T17:35:17.000Z</time>
      </trkpt>
      <trkpt lat="46.45823" lon="6.02628">
        <ele>1170.3</ele>
        <time>2012-08-13T17:35:19.000Z</time>
      </trkpt>
      <trkpt lat="46.45819" lon="6.02622">
        <ele>1169.9</ele>
        <time>2012-08-13T17:35:22.000Z</time>
      </trkpt>
      <trkpt lat="46.45814" lon="6.02616">
        <ele>1170.7</ele>
        <time>2012-08-13T17:35:25.000Z</time>
      </trkpt>
      <trkpt lat="46.4581" lon="6.02612">
        <ele>1171.1</ele>
        <time>2012-08-13T17:35:28.000Z</time>
      </trkpt>
      <trkpt lat="46.45806" lon="6.02607">
        <ele>1171.3</ele>
        <time>2012-08-13T17:35:31.000Z</time>
      </trkpt>
      <trkpt lat="46.45803" lon="6.02601">
        <ele>1171.8</ele>
        <time>2012-08-13T17:35:34.000Z</time>
      </trkpt>
      <trkpt lat="46.45798" lon="6.02595">
        <ele>1172.2</ele>
        <time>2012-08-13T17:35:37.000Z</time>
      </trkpt>
      <trkpt lat="46.45794" lon="6.02589">
        <ele>1173.4</ele>
        <time>2012-08-13T17:35:40.000Z</time>
      </trkpt>
      <trkpt lat="46.45789" lon="6.02584">
        <ele>1174.1</ele>
        <time>2012-08-13T17:35:43.000Z</time>
      </trkpt>
      <trkpt lat="46.45784" lon="6.0258">
        <ele>1174.4</ele>
        <time>2012-08-13T17:35:46.000Z</time>
      </trkpt>
      <trkpt lat="46.45779" lon="6.02576">
        <ele>1174.8</ele>
        <time>2012-08-13T17:35:50.000Z</time>
      </trkpt>
      <trkpt lat="46.45774" lon="6.02573">
        <ele>1176.5</ele>
        <time>2012-08-13T17:35:53.000Z</time>
      </trkpt>
      <trkpt lat="46.4577" lon="6.0257">
        <ele>1178.4</ele>
        <time>2012-08-13T17:35:55.000Z</time>
      </trkpt>
      <trkpt lat="46.45764" lon="6.02569">
        <ele>1178.8</ele>
        <time>2012-08-13T17:35:58.000Z</time>
      </trkpt>
      <trkpt lat="46.45759" lon="6.0257">
        <ele>1178.6</ele>
        <time>2012-08-13T17:36:01.000Z</time>
      </trkpt>
      <trkpt lat="46.45754" lon="6.02569">
        <ele>1178.6</ele>
        <time>2012-08-13T17:36:04.000Z</time>
      </trkpt>
      <trkpt lat="46.45748" lon="6.02568">
        <ele>1178</ele>
        <time>2012-08-13T17:36:07.528Z</time>
      </trkpt>
      <trkpt lat="46.45742" lon="6.02568">
        <ele>1178.2</ele>
        <time>2012-08-13T17:36:11.000Z</time>
      </trkpt>
      <trkpt lat="46.45737" lon="6.02568">
        <ele>1178</ele>
        <time>2012-08-13T17:36:15.000Z</time>
      </trkpt>
      <trkpt lat="46.45731" lon="6.02567">
        <ele>1176.2</ele>
        <time>2012-08-13T17:36:18.000Z</time>
      </trkpt>
      <trkpt lat="46.45726" lon="6.02565">
        <ele>1175.7</ele>
        <time>2012-08-13T17:36:21.000Z</time>
      </trkpt>
      <trkpt lat="46.45721" lon="6.02562">
        <ele>1176</ele>
        <time>2012-08-13T17:36:24.000Z</time>
      </trkpt>
      <trkpt lat="46.45717" lon="6.02557">
        <ele>1176.2</ele>
        <time>2012-08-13T17:36:27.000Z</time>
      </trkpt>
      <trkpt lat="46.45712" lon="6.02552">
        <ele>1177.1</ele>
        <time>2012-08-13T17:36:30.000Z</time>
      </trkpt>
      <trkpt lat="46.45708" lon="6.02546">
        <ele>1177.1</ele>
        <time>2012-08-13T17:36:33.000Z</time>
      </trkpt>
      <trkpt lat="46.45704" lon="6.02541">
        <ele>1179.9</ele>
        <time>2012-08-13T17:36:36.000Z</time>
      </trkpt>
      <trkpt lat="46.457" lon="6.02536">
        <ele>1180.1</ele>
        <time>2012-08-13T17:36:39.000Z</time>
      </trkpt>
      <trkpt lat="46.45695" lon="6.02532">
        <ele>1179.5</ele>
        <time>2012-08-13T17:36:42.000Z</time>
      </trkpt>
      <trkpt lat="46.45691" lon="6.0253">
        <ele>1180.4</ele>
        <time>2012-08-13T17:36:45.000Z</time>
      </trkpt>
      <trkpt lat="46.45685" lon="6.02527">
        <ele>1181</ele>
        <time>2012-08-13T17:36:49.000Z</time>
      </trkpt>
      <trkpt lat="46.4568" lon="6.02524">
        <ele>1180.8</ele>
        <time>2012-08-13T17:36:52.000Z</time>
      </trkpt>
      <trkpt lat="46.45675" lon="6.02522">
        <ele>1181.6</ele>
        <time>2012-08-13T17:36:55.000Z</time>
      </trkpt>
      <trkpt lat="46.4567" lon="6.0252">
        <ele>1182.6</ele>
        <time>2012-08-13T17:36:58.000Z</time>
      </trkpt>
      <trkpt lat="46.45664" lon="6.02516">
        <ele>1183.5</ele>
        <time>2012-08-13T17:37:01.000Z</time>
      </trkpt>
      <trkpt lat="46.4566" lon="6.02514">
        <ele>1184.9</ele>
        <time>2012-08-13T17:37:03.000Z</time>
      </trkpt>
      <trkpt lat="46.45654" lon="6.02513">
        <ele>1185.8</ele>
        <time>2012-08-13T17:37:06.000Z</time>
      </trkpt>
      <trkpt lat="46.45649" lon="6.02513">
        <ele>1185.9</ele>
        <time>2012-08-13T17:37:09.000Z</time>
      </trkpt>
      <trkpt lat="46.45644" lon="6.02511">
        <ele>1185.9</ele>
        <time>2012-08-13T17:37:12.000Z</time>
      </trkpt>
      <trkpt lat="46.45638" lon="6.02508">
        <ele>1186.7</ele>
        <time>2012-08-13T17:37:15.000Z</time>
      </trkpt>
      <trkpt lat="46.45634" lon="6.02504">
        <ele>1186.2</ele>
        <time>2012-08-13T17:37:20.000Z</time>
      </trkpt>
      <trkpt lat="46.4563" lon="6.025">
        <ele>1186.2</ele>
        <time>2012-08-13T17:37:23.000Z</time>
      </trkpt>
      <trkpt lat="46.45625" lon="6.02496">
        <ele>1186.7</ele>
        <time>2012-08-13T17:37:26.000Z</time>
      </trkpt>
      <trkpt lat="46.4562" lon="6.02491">
        <ele>1188</ele>
        <time>2012-08-13T17:37:29.000Z</time>
      </trkpt>
      <trkpt lat="46.45616" lon="6.02485">
        <ele>1188.5</ele>
        <time>2012-08-13T17:37:32.000Z</time>
      </trkpt>
      <trkpt lat="46.45611" lon="6.0248">
        <ele>1189</ele>
        <time>2012-08-13T17:37:35.000Z</time>
      </trkpt>
      <trkpt lat="46.45608" lon="6.02476">
        <ele>1188.6</ele>
        <time>2012-08-13T17:37:38.000Z</time>
      </trkpt>
      <trkpt lat="46.45602" lon="6.02473">
        <ele>1187.4</ele>
        <time>2012-08-13T17:37:42.000Z</time>
      </trkpt>
      <trkpt lat="46.45597" lon="6.0247">
        <ele>1186.2</ele>
        <time>2012-08-13T17:37:45.000Z</time>
      </trkpt>
      <trkpt lat="46.45593" lon="6.02468">
        <ele>1183.4</ele>
        <time>2012-08-13T17:37:48.000Z</time>
      </trkpt>
      <trkpt lat="46.45588" lon="6.02466">
        <ele>1181.9</ele>
        <time>2012-08-13T17:37:52.000Z</time>
      </trkpt>
      <trkpt lat="46.45583" lon="6.02463">
        <ele>1181.9</ele>
        <time>2012-08-13T17:37:57.000Z</time>
      </trkpt>
      <trkpt lat="46.4558" lon="6.02458">
        <ele>1182.8</ele>
        <time>2012-08-13T17:38:00.000Z</time>
      </trkpt>
      <trkpt lat="46.45576" lon="6.02452">
        <ele>1181.7</ele>
        <time>2012-08-13T17:38:04.000Z</time>
      </trkpt>
      <trkpt lat="46.45572" lon="6.02448">
        <ele>1180.9</ele>
        <time>2012-08-13T17:38:07.000Z</time>
      </trkpt>
      <trkpt lat="46.45567" lon="6.02445">
        <ele>1180.7</ele>
        <time>2012-08-13T17:38:10.000Z</time>
      </trkpt>
      <trkpt lat="46.45562" lon="6.02441">
        <ele>1180.6</ele>
        <time>2012-08-13T17:38:13.000Z</time>
      </trkpt>
      <trkpt lat="46.45558" lon="6.02434">
        <ele>1180.7</ele>
        <time>2012-08-13T17:38:17.000Z</time>
      </trkpt>
      <trkpt lat="46.45556" lon="6.02428">
        <ele>1181.7</ele>
        <time>2012-08-13T17:38:21.000Z</time>
      </trkpt>
      <trkpt lat="46.45552" lon="6.02424">
        <ele>1181.4</ele>
        <time>2012-08-13T17:38:26.000Z</time>
      </trkpt>
      <trkpt lat="46.45549" lon="6.0242">
        <ele>1180.8</ele>
        <time>2012-08-13T17:38:30.000Z</time>
      </trkpt>
      <trkpt lat="46.45545" lon="6.02415">
        <ele>1181.9</ele>
        <time>2012-08-13T17:38:35.000Z</time>
      </trkpt>
      <trkpt lat="46.45541" lon="6.02411">
        <ele>1181.8</ele>
        <time>2012-08-13T17:38:39.000Z</time>
      </trkpt>
      <trkpt lat="46.45538" lon="6.02404">
        <ele>1180.2</ele>
        <time>2012-08-13T17:38:45.000Z</time>
      </trkpt>
      <trkpt lat="46.45535" lon="6.02399">
        <ele>1178.6</ele>
        <time>2012-08-13T17:38:48.000Z</time>
      </trkpt>
      <trkpt lat="46.45532" lon="6.02393">
        <ele>1176.8</ele>
        <time>2012-08-13T17:38:51.000Z</time>
      </trkpt>
      <trkpt lat="46.45529" lon="6.02388">
        <ele>1177.5</ele>
        <time>2012-08-13T17:38:54.000Z</time>
      </trkpt>
      <trkpt lat="46.45525" lon="6.02384">
        <ele>1175.6</ele>
        <time>2012-08-13T17:38:57.000Z</time>
      </trkpt>
      <trkpt lat="46.45522" lon="6.02377">
        <ele>1175.4</ele>
        <time>2012-08-13T17:39:01.000Z</time>
      </trkpt>
      <trkpt lat="46.45517" lon="6.02371">
        <ele>1174.5</ele>
        <time>2012-08-13T17:39:05.000Z</time>
      </trkpt>
      <trkpt lat="46.45512" lon="6.02366">
        <ele>1174.7</ele>
        <time>2012-08-13T17:39:09.000Z</time>
      </trkpt>
      <trkpt lat="46.45507" lon="6.02363">
        <ele>1175.8</ele>
        <time>2012-08-13T17:39:12.000Z</time>
      </trkpt>
      <trkpt lat="46.45502" lon="6.02358">
        <ele>1179.6</ele>
        <time>2012-08-13T17:39:16.000Z</time>
      </trkpt>
      <trkpt lat="46.45498" lon="6.02353">
        <ele>1179.3</ele>
        <time>2012-08-13T17:39:19.000Z</time>
      </trkpt>
      <trkpt lat="46.45494" lon="6.02346">
        <ele>1182.3</ele>
        <time>2012-08-13T17:39:22.000Z</time>
      </trkpt>
      <trkpt lat="46.4549" lon="6.0234">
        <ele>1184.9</ele>
        <time>2012-08-13T17:39:25.000Z</time>
      </trkpt>
      <trkpt lat="46.45486" lon="6.02334">
        <ele>1184.3</ele>
        <time>2012-08-13T17:39:29.000Z</time>
      </trkpt>
      <trkpt lat="46.45483" lon="6.02328">
        <ele>1186.8</ele>
        <time>2012-08-13T17:39:32.000Z</time>
      </trkpt>
      <trkpt lat="46.4548" lon="6.02322">
        <ele>1188</ele>
        <time>2012-08-13T17:39:35.000Z</time>
      </trkpt>
      <trkpt lat="46.45476" lon="6.02316">
        <ele>1187.1</ele>
        <time>2012-08-13T17:39:39.000Z</time>
      </trkpt>
      <trkpt lat="46.45472" lon="6.02311">
        <ele>1186.9</ele>
        <time>2012-08-13T17:39:43.000Z</time>
      </trkpt>
      <trkpt lat="46.45468" lon="6.02306">
        <ele>1188.9</ele>
        <time>2012-08-13T17:39:47.000Z</time>
      </trkpt>
      <trkpt lat="46.45463" lon="6.02302">
        <ele>1189.5</ele>
        <time>2012-08-13T17:39:53.000Z</time>
      </trkpt>
      <trkpt lat="46.45458" lon="6.02301">
        <ele>1188.1</ele>
        <time>2012-08-13T17:39:57.000Z</time>
      </trkpt>
      <trkpt lat="46.45453" lon="6.02298">
        <ele>1189</ele>
        <time>2012-08-13T17:40:01.000Z</time>
      </trkpt>
      <trkpt lat="46.45448" lon="6.02295">
        <ele>1188.7</ele>
        <time>2012-08-13T17:40:04.000Z</time>
      </trkpt>
      <trkpt lat="46.45441" lon="6.02293">
        <ele>1188.9</ele>
        <time>2012-08-13T17:40:07.000Z</time>
      </trkpt>
      <trkpt lat="46.45436" lon="6.02292">
        <ele>1191.2</ele>
        <time>2012-08-13T17:40:10.000Z</time>
      </trkpt>
      <trkpt lat="46.45431" lon="6.0229">
        <ele>1192.1</ele>
        <time>2012-08-13T17:40:13.000Z</time>
      </trkpt>
      <trkpt lat="46.45426" lon="6.02287">
        <ele>1192.1</ele>
        <time>2012-08-13T17:40:16.000Z</time>
      </trkpt>
      <trkpt lat="46.45422" lon="6.02284">
        <ele>1192.1</ele>
        <time>2012-08-13T17:40:19.000Z</time>
      </trkpt>
      <trkpt lat="46.45416" lon="6.02283">
        <ele>1192</ele>
        <time>2012-08-13T17:40:23.000Z</time>
      </trkpt>
      <trkpt lat="46.45411" lon="6.02281">
        <ele>1191.7</ele>
        <time>2012-08-13T17:40:27.000Z</time>
      </trkpt>
      <trkpt lat="46.45405" lon="6.02278">
        <ele>1191.1</ele>
        <time>2012-08-13T17:40:30.000Z</time>
      </trkpt>
      <trkpt lat="46.454" lon="6.02277">
        <ele>1190.2</ele>
        <time>2012-08-13T17:40:32.000Z</time>
      </trkpt>
      <trkpt lat="46.45395" lon="6.02277">
        <ele>1190.7</ele>
        <time>2012-08-13T17:40:34.000Z</time>
      </trkpt>
      <trkpt lat="46.4539" lon="6.02278">
        <ele>1192.6</ele>
        <time>2012-08-13T17:40:37.000Z</time>
      </trkpt>
      <trkpt lat="46.45385" lon="6.02283">
        <ele>1193.6</ele>
        <time>2012-08-13T17:40:40.000Z</time>
      </trkpt>
      <trkpt lat="46.45381" lon="6.02289">
        <ele>1193.3</ele>
        <time>2012-08-13T17:40:43.000Z</time>
      </trkpt>
      <trkpt lat="46.45378" lon="6.02294">
        <ele>1194.7</ele>
        <time>2012-08-13T17:40:46.000Z</time>
      </trkpt>
      <trkpt lat="46.45374" lon="6.023">
        <ele>1194.9</ele>
        <time>2012-08-13T17:40:49.000Z</time>
      </trkpt>
      <trkpt lat="46.45371" lon="6.02306">
        <ele>1197.4</ele>
        <time>2012-08-13T17:40:52.000Z</time>
      </trkpt>
      <trkpt lat="46.45368" lon="6.02312">
        <ele>1197.6</ele>
        <time>2012-08-13T17:40:55.000Z</time>
      </trkpt>
      <trkpt lat="46.45366" lon="6.02318">
        <ele>1201.1</ele>
        <time>2012-08-13T17:40:58.000Z</time>
      </trkpt>
      <trkpt lat="46.45364" lon="6.02324">
        <ele>1203.2</ele>
        <time>2012-08-13T17:41:02.000Z</time>
      </trkpt>
      <trkpt lat="46.4536" lon="6.02328">
        <ele>1202.4</ele>
        <time>2012-08-13T17:41:09.000Z</time>
      </trkpt>
      <trkpt lat="46.45356" lon="6.02334">
        <ele>1203.3</ele>
        <time>2012-08-13T17:41:14.000Z</time>
      </trkpt>
      <trkpt lat="46.45354" lon="6.0234">
        <ele>1204.4</ele>
        <time>2012-08-13T17:41:17.000Z</time>
      </trkpt>
      <trkpt lat="46.45352" lon="6.02346">
        <ele>1204.3</ele>
        <time>2012-08-13T17:41:20.000Z</time>
      </trkpt>
      <trkpt lat="46.4535" lon="6.02354">
        <ele>1203.3</ele>
        <time>2012-08-13T17:41:24.000Z</time>
      </trkpt>
      <trkpt lat="46.45349" lon="6.02361">
        <ele>1202.3</ele>
        <time>2012-08-13T17:41:27.000Z</time>
      </trkpt>
      <trkpt lat="46.45345" lon="6.02363">
        <ele>1200.4</ele>
        <time>2012-08-13T17:41:34.000Z</time>
      </trkpt>
      <trkpt lat="46.4534" lon="6.02367">
        <ele>1200.8</ele>
        <time>2012-08-13T17:41:39.000Z</time>
      </trkpt>
      <trkpt lat="46.45335" lon="6.02372">
        <ele>1201.5</ele>
        <time>2012-08-13T17:41:42.000Z</time>
      </trkpt>
      <trkpt lat="46.4533" lon="6.02376">
        <ele>1202.7</ele>
        <time>2012-08-13T17:41:45.000Z</time>
      </trkpt>
      <trkpt lat="46.45326" lon="6.02382">
        <ele>1203.4</ele>
        <time>2012-08-13T17:41:49.000Z</time>
      </trkpt>
      <trkpt lat="46.45323" lon="6.02387">
        <ele>1203.5</ele>
        <time>2012-08-13T17:41:52.000Z</time>
      </trkpt>
      <trkpt lat="46.45321" lon="6.02393">
        <ele>1203.7</ele>
        <time>2012-08-13T17:41:54.000Z</time>
      </trkpt>
      <trkpt lat="46.45318" lon="6.02402">
        <ele>1205.4</ele>
        <time>2012-08-13T17:41:57.000Z</time>
      </trkpt>
      <trkpt lat="46.45316" lon="6.02409">
        <ele>1206.6</ele>
        <time>2012-08-13T17:42:00.000Z</time>
      </trkpt>
      <trkpt lat="46.45315" lon="6.02416">
        <ele>1206.1</ele>
        <time>2012-08-13T17:42:04.000Z</time>
      </trkpt>
      <trkpt lat="46.45314" lon="6.02424">
        <ele>1205.8</ele>
        <time>2012-08-13T17:42:09.000Z</time>
      </trkpt>
      <trkpt lat="46.45315" lon="6.02432">
        <ele>1208.2</ele>
        <time>2012-08-13T17:42:13.000Z</time>
      </trkpt>
      <trkpt lat="46.45316" lon="6.02439">
        <ele>1208.3</ele>
        <time>2012-08-13T17:42:17.000Z</time>
      </trkpt>
      <trkpt lat="46.45316" lon="6.02446">
        <ele>1208.5</ele>
        <time>2012-08-13T17:42:20.000Z</time>
      </trkpt>
      <trkpt lat="46.45317" lon="6.02453">
        <ele>1208</ele>
        <time>2012-08-13T17:42:24.000Z</time>
      </trkpt>
      <trkpt lat="46.45319" lon="6.02459">
        <ele>1210</ele>
        <time>2012-08-13T17:42:29.000Z</time>
      </trkpt>
      <trkpt lat="46.4532" lon="6.02465">
        <ele>1211.5</ele>
        <time>2012-08-13T17:42:32.000Z</time>
      </trkpt>
      <trkpt lat="46.4532" lon="6.02473">
        <ele>1211.1</ele>
        <time>2012-08-13T17:42:36.000Z</time>
      </trkpt>
      <trkpt lat="46.45318" lon="6.0248">
        <ele>1209.8</ele>
        <time>2012-08-13T17:42:40.000Z</time>
      </trkpt>
      <trkpt lat="46.45317" lon="6.02487">
        <ele>1211.3</ele>
        <time>2012-08-13T17:42:44.000Z</time>
      </trkpt>
      <trkpt lat="46.45316" lon="6.02494">
        <ele>1212.2</ele>
        <time>2012-08-13T17:42:49.000Z</time>
      </trkpt>
      <trkpt lat="46.45313" lon="6.025">
        <ele>1212.6</ele>
        <time>2012-08-13T17:42:53.000Z</time>
      </trkpt>
      <trkpt lat="46.45309" lon="6.02505">
        <ele>1212.4</ele>
        <time>2012-08-13T17:42:57.000Z</time>
      </trkpt>
      <trkpt lat="46.45307" lon="6.02511">
        <ele>1212.5</ele>
        <time>2012-08-13T17:43:03.000Z</time>
      </trkpt>
      <trkpt lat="46.45307" lon="6.02518">
        <ele>1213.6</ele>
        <time>2012-08-13T17:43:17.000Z</time>
      </trkpt>
      <trkpt lat="46.45304" lon="6.02525">
        <ele>1214</ele>
        <time>2012-08-13T17:43:20.000Z</time>
      </trkpt>
      <trkpt lat="46.45301" lon="6.02532">
        <ele>1214.4</ele>
        <time>2012-08-13T17:43:23.000Z</time>
      </trkpt>
      <trkpt lat="46.45299" lon="6.02541">
        <ele>1216.4</ele>
        <time>2012-08-13T17:43:26.000Z</time>
      </trkpt>
      <trkpt lat="46.45297" lon="6.02548">
        <ele>1215.9</ele>
        <time>2012-08-13T17:43:29.000Z</time>
      </trkpt>
      <trkpt lat="46.45295" lon="6.02554">
        <ele>1216.6</ele>
        <time>2012-08-13T17:43:32.000Z</time>
      </trkpt>
      <trkpt lat="46.45295" lon="6.02562">
        <ele>1217</ele>
        <time>2012-08-13T17:43:35.000Z</time>
      </trkpt>
      <trkpt lat="46.45292" lon="6.02568">
        <ele>1217.5</ele>
        <time>2012-08-13T17:43:39.000Z</time>
      </trkpt>
      <trkpt lat="46.4529" lon="6.02574">
        <ele>1217.6</ele>
        <time>2012-08-13T17:43:42.000Z</time>
      </trkpt>
      <trkpt lat="46.45288" lon="6.02581">
        <ele>1218.9</ele>
        <time>2012-08-13T17:43:46.000Z</time>
      </trkpt>
      <trkpt lat="46.45285" lon="6.02587">
        <ele>1219.3</ele>
        <time>2012-08-13T17:43:50.000Z</time>
      </trkpt>
      <trkpt lat="46.45281" lon="6.02592">
        <ele>1218.7</ele>
        <time>2012-08-13T17:43:56.000Z</time>
      </trkpt>
      <trkpt lat="46.45277" lon="6.02596">
        <ele>1218.9</ele>
        <time>2012-08-13T17:44:00.000Z</time>
      </trkpt>
      <trkpt lat="46.45273" lon="6.02605">
        <ele>1218.3</ele>
        <time>2012-08-13T17:44:03.000Z</time>
      </trkpt>
      <trkpt lat="46.45271" lon="6.02611">
        <ele>1218.9</ele>
        <time>2012-08-13T17:44:05.000Z</time>
      </trkpt>
      <trkpt lat="46.45268" lon="6.02618">
        <ele>1218.9</ele>
        <time>2012-08-13T17:44:09.000Z</time>
      </trkpt>
      <trkpt lat="46.45266" lon="6.02625">
        <ele>1221.3</ele>
        <time>2012-08-13T17:44:15.000Z</time>
      </trkpt>
      <trkpt lat="46.45262" lon="6.0263">
        <ele>1222</ele>
        <time>2012-08-13T17:44:21.000Z</time>
      </trkpt>
      <trkpt lat="46.45258" lon="6.02635">
        <ele>1222.1</ele>
        <time>2012-08-13T17:44:24.000Z</time>
      </trkpt>
      <trkpt lat="46.45254" lon="6.0264">
        <ele>1223.8</ele>
        <time>2012-08-13T17:44:27.000Z</time>
      </trkpt>
      <trkpt lat="46.45249" lon="6.02642">
        <ele>1222.4</ele>
        <time>2012-08-13T17:44:30.000Z</time>
      </trkpt>
      <trkpt lat="46.45245" lon="6.02648">
        <ele>1223.1</ele>
        <time>2012-08-13T17:44:34.000Z</time>
      </trkpt>
      <trkpt lat="46.45242" lon="6.02655">
        <ele>1224.6</ele>
        <time>2012-08-13T17:44:37.000Z</time>
      </trkpt>
      <trkpt lat="46.45241" lon="6.02662">
        <ele>1227.3</ele>
        <time>2012-08-13T17:44:42.000Z</time>
      </trkpt>
      <trkpt lat="46.45239" lon="6.02667">
        <ele>1229.3</ele>
        <time>2012-08-13T17:44:49.000Z</time>
      </trkpt>
      <trkpt lat="46.45235" lon="6.02675">
        <ele>1229.5</ele>
        <time>2012-08-13T17:45:04.000Z</time>
      </trkpt>
      <trkpt lat="46.45231" lon="6.02683">
        <ele>1229.4</ele>
        <time>2012-08-13T17:45:07.521Z</time>
      </trkpt>
      <trkpt lat="46.45228" lon="6.02689">
        <ele>1227.3</ele>
        <time>2012-08-13T17:45:11.000Z</time>
      </trkpt>
      <trkpt lat="46.45224" lon="6.02692">
        <ele>1227.7</ele>
        <time>2012-08-13T17:45:13.000Z</time>
      </trkpt>
      <trkpt lat="46.45219" lon="6.02698">
        <ele>1227.8</ele>
        <time>2012-08-13T17:45:16.000Z</time>
      </trkpt>
      <trkpt lat="46.45215" lon="6.02702">
        <ele>1227.1</ele>
        <time>2012-08-13T17:45:18.000Z</time>
      </trkpt>
      <trkpt lat="46.45212" lon="6.02707">
        <ele>1227.6</ele>
        <time>2012-08-13T17:45:21.000Z</time>
      </trkpt>
      <trkpt lat="46.45209" lon="6.02712">
        <ele>1228.1</ele>
        <time>2012-08-13T17:45:29.000Z</time>
      </trkpt>
      <trkpt lat="46.45206" lon="6.0272">
        <ele>1229.1</ele>
        <time>2012-08-13T17:45:35.000Z</time>
      </trkpt>
      <trkpt lat="46.45203" lon="6.02726">
        <ele>1229.5</ele>
        <time>2012-08-13T17:45:39.000Z</time>
      </trkpt>
      <trkpt lat="46.452" lon="6.0273">
        <ele>1229.5</ele>
        <time>2012-08-13T17:45:44.000Z</time>
      </trkpt>
      <trkpt lat="46.45198" lon="6.02737">
        <ele>1228.1</ele>
        <time>2012-08-13T17:45:52.000Z</time>
      </trkpt>
      <trkpt lat="46.45195" lon="6.02742">
        <ele>1228</ele>
        <time>2012-08-13T17:45:55.000Z</time>
      </trkpt>
      <trkpt lat="46.45191" lon="6.02748">
        <ele>1228</ele>
        <time>2012-08-13T17:45:59.000Z</time>
      </trkpt>
      <trkpt lat="46.4519" lon="6.02766">
        <ele>1229</ele>
        <time>2012-08-13T17:46:05.000Z</time>
      </trkpt>
      <trkpt lat="46.45175" lon="6.02816">
        <ele>1228.5</ele>
        <time>2012-08-13T17:46:33.000Z</time>
      </trkpt>
      <trkpt lat="46.45171" lon="6.02822">
        <ele>1230</ele>
        <time>2012-08-13T17:46:35.000Z</time>
      </trkpt>
      <trkpt lat="46.4515" lon="6.02818">
        <ele>1231.6</ele>
        <time>2012-08-13T17:46:36.000Z</time>
      </trkpt>
      <trkpt lat="46.45152" lon="6.02825">
        <ele>1234.3</ele>
        <time>2012-08-13T17:46:40.000Z</time>
      </trkpt>
      <trkpt lat="46.45147" lon="6.02821">
        <ele>1237.4</ele>
        <time>2012-08-13T17:46:44.000Z</time>
      </trkpt>
      <trkpt lat="46.45142" lon="6.02818">
        <ele>1239.6</ele>
        <time>2012-08-13T17:46:48.000Z</time>
      </trkpt>
      <trkpt lat="46.45137" lon="6.02818">
        <ele>1241.3</ele>
        <time>2012-08-13T17:46:59.000Z</time>
      </trkpt>
      <trkpt lat="46.45133" lon="6.02824">
        <ele>1243.6</ele>
        <time>2012-08-13T17:47:01.000Z</time>
      </trkpt>
      <trkpt lat="46.45129" lon="6.0283">
        <ele>1243.6</ele>
        <time>2012-08-13T17:47:03.000Z</time>
      </trkpt>
      <trkpt lat="46.45125" lon="6.02838">
        <ele>1244.3</ele>
        <time>2012-08-13T17:47:05.000Z</time>
      </trkpt>
      <trkpt lat="46.45121" lon="6.02847">
        <ele>1243.6</ele>
        <time>2012-08-13T17:47:07.576Z</time>
      </trkpt>
      <trkpt lat="46.45117" lon="6.02854">
        <ele>1242.8</ele>
        <time>2012-08-13T17:47:10.000Z</time>
      </trkpt>
      <trkpt lat="46.45115" lon="6.02862">
        <ele>1240.9</ele>
        <time>2012-08-13T17:47:12.000Z</time>
      </trkpt>
      <trkpt lat="46.45112" lon="6.0287">
        <ele>1241</ele>
        <time>2012-08-13T17:47:15.000Z</time>
      </trkpt>
      <trkpt lat="46.45112" lon="6.02877">
        <ele>1240.8</ele>
        <time>2012-08-13T17:47:18.000Z</time>
      </trkpt>
      <trkpt lat="46.4511" lon="6.02885">
        <ele>1242.4</ele>
        <time>2012-08-13T17:47:21.000Z</time>
      </trkpt>
      <trkpt lat="46.45108" lon="6.02891">
        <ele>1243.7</ele>
        <time>2012-08-13T17:47:25.000Z</time>
      </trkpt>
      <trkpt lat="46.45105" lon="6.02896">
        <ele>1244.8</ele>
        <time>2012-08-13T17:47:30.000Z</time>
      </trkpt>
      <trkpt lat="46.45103" lon="6.02904">
        <ele>1242.5</ele>
        <time>2012-08-13T17:47:33.000Z</time>
      </trkpt>
      <trkpt lat="46.45101" lon="6.02912">
        <ele>1241</ele>
        <time>2012-08-13T17:47:35.000Z</time>
      </trkpt>
      <trkpt lat="46.451" lon="6.02922">
        <ele>1242.4</ele>
        <time>2012-08-13T17:47:37.000Z</time>
      </trkpt>
      <trkpt lat="46.45099" lon="6.02932">
        <ele>1242.6</ele>
        <time>2012-08-13T17:47:39.000Z</time>
      </trkpt>
      <trkpt lat="46.45097" lon="6.02941">
        <ele>1243.8</ele>
        <time>2012-08-13T17:47:41.000Z</time>
      </trkpt>
      <trkpt lat="46.45096" lon="6.02948">
        <ele>1242.6</ele>
        <time>2012-08-13T17:47:43.000Z</time>
      </trkpt>
      <trkpt lat="46.45093" lon="6.02955">
        <ele>1243.9</ele>
        <time>2012-08-13T17:47:46.000Z</time>
      </trkpt>
      <trkpt lat="46.4509" lon="6.02961">
        <ele>1244.2</ele>
        <time>2012-08-13T17:47:50.000Z</time>
      </trkpt>
      <trkpt lat="46.45087" lon="6.02967">
        <ele>1245.2</ele>
        <time>2012-08-13T17:47:54.000Z</time>
      </trkpt>
      <trkpt lat="46.45082" lon="6.0297">
        <ele>1247</ele>
        <time>2012-08-13T17:48:02.000Z</time>
      </trkpt>
      <trkpt lat="46.45078" lon="6.02975">
        <ele>1248.5</ele>
        <time>2012-08-13T17:48:05.000Z</time>
      </trkpt>
      <trkpt lat="46.45073" lon="6.02979">
        <ele>1248.6</ele>
        <time>2012-08-13T17:48:07.568Z</time>
      </trkpt>
      <trkpt lat="46.45067" lon="6.02983">
        <ele>1250.2</ele>
        <time>2012-08-13T17:48:11.000Z</time>
      </trkpt>
      <trkpt lat="46.45064" lon="6.02988">
        <ele>1250.1</ele>
        <time>2012-08-13T17:48:13.000Z</time>
      </trkpt>
      <trkpt lat="46.4506" lon="6.02993">
        <ele>1250.8</ele>
        <time>2012-08-13T17:48:17.000Z</time>
      </trkpt>
      <trkpt lat="46.45056" lon="6.03">
        <ele>1251.7</ele>
        <time>2012-08-13T17:48:20.000Z</time>
      </trkpt>
      <trkpt lat="46.45052" lon="6.03005">
        <ele>1255.8</ele>
        <time>2012-08-13T17:48:22.000Z</time>
      </trkpt>
      <trkpt lat="46.45049" lon="6.0301">
        <ele>1255.5</ele>
        <time>2012-08-13T17:48:24.000Z</time>
      </trkpt>
      <trkpt lat="46.45045" lon="6.03016">
        <ele>1253.4</ele>
        <time>2012-08-13T17:48:26.000Z</time>
      </trkpt>
      <trkpt lat="46.4504" lon="6.03024">
        <ele>1252.6</ele>
        <time>2012-08-13T17:48:28.000Z</time>
      </trkpt>
      <trkpt lat="46.45037" lon="6.0303">
        <ele>1251.1</ele>
        <time>2012-08-13T17:48:30.000Z</time>
      </trkpt>
      <trkpt lat="46.45034" lon="6.03035">
        <ele>1251</ele>
        <time>2012-08-13T17:48:32.000Z</time>
      </trkpt>
      <trkpt lat="46.4503" lon="6.03041">
        <ele>1251.7</ele>
        <time>2012-08-13T17:48:35.000Z</time>
      </trkpt>
      <trkpt lat="46.45027" lon="6.03047">
        <ele>1254.9</ele>
        <time>2012-08-13T17:48:38.000Z</time>
      </trkpt>
      <trkpt lat="46.45024" lon="6.03056">
        <ele>1255.8</ele>
        <time>2012-08-13T17:48:41.000Z</time>
      </trkpt>
      <trkpt lat="46.45022" lon="6.03062">
        <ele>1254</ele>
        <time>2012-08-13T17:48:43.000Z</time>
      </trkpt>
      <trkpt lat="46.4502" lon="6.03068">
        <ele>1253.4</ele>
        <time>2012-08-13T17:48:45.000Z</time>
      </trkpt>
      <trkpt lat="46.45018" lon="6.03075">
        <ele>1255.2</ele>
        <time>2012-08-13T17:48:48.000Z</time>
      </trkpt>
      <trkpt lat="46.45015" lon="6.03082">
        <ele>1255.1</ele>
        <time>2012-08-13T17:48:51.000Z</time>
      </trkpt>
      <trkpt lat="46.45012" lon="6.03089">
        <ele>1256.1</ele>
        <time>2012-08-13T17:48:55.000Z</time>
      </trkpt>
      <trkpt lat="46.4501" lon="6.03097">
        <ele>1253.4</ele>
        <time>2012-08-13T17:49:00.000Z</time>
      </trkpt>
      <trkpt lat="46.45007" lon="6.03103">
        <ele>1253</ele>
        <time>2012-08-13T17:49:04.000Z</time>
      </trkpt>
      <trkpt lat="46.45005" lon="6.03109">
        <ele>1253.1</ele>
        <time>2012-08-13T17:49:07.566Z</time>
      </trkpt>
      <trkpt lat="46.45002" lon="6.03116">
        <ele>1252.2</ele>
        <time>2012-08-13T17:49:13.000Z</time>
      </trkpt>
      <trkpt lat="46.45" lon="6.03122">
        <ele>1254.3</ele>
        <time>2012-08-13T17:49:17.000Z</time>
      </trkpt>
      <trkpt lat="46.44998" lon="6.03129">
        <ele>1254.4</ele>
        <time>2012-08-13T17:49:20.000Z</time>
      </trkpt>
      <trkpt lat="46.44996" lon="6.03136">
        <ele>1253.9</ele>
        <time>2012-08-13T17:49:23.000Z</time>
      </trkpt>
      <trkpt lat="46.44994" lon="6.03143">
        <ele>1254.4</ele>
        <time>2012-08-13T17:49:26.000Z</time>
      </trkpt>
      <trkpt lat="46.44992" lon="6.0315">
        <ele>1256</ele>
        <time>2012-08-13T17:49:30.000Z</time>
      </trkpt>
      <trkpt lat="46.44991" lon="6.03157">
        <ele>1256.2</ele>
        <time>2012-08-13T17:49:35.000Z</time>
      </trkpt>
      <trkpt lat="46.44989" lon="6.03164">
        <ele>1255.7</ele>
        <time>2012-08-13T17:49:40.000Z</time>
      </trkpt>
      <trkpt lat="46.44987" lon="6.0317">
        <ele>1256.5</ele>
        <time>2012-08-13T17:49:45.000Z</time>
      </trkpt>
      <trkpt lat="46.44986" lon="6.03178">
        <ele>1258.3</ele>
        <time>2012-08-13T17:49:50.000Z</time>
      </trkpt>
      <trkpt lat="46.44984" lon="6.03185">
        <ele>1259.2</ele>
        <time>2012-08-13T17:49:55.000Z</time>
      </trkpt>
      <trkpt lat="46.44983" lon="6.03192">
        <ele>1258.7</ele>
        <time>2012-08-13T17:50:00.000Z</time>
      </trkpt>
      <trkpt lat="46.44981" lon="6.032">
        <ele>1257.2</ele>
        <time>2012-08-13T17:50:05.000Z</time>
      </trkpt>
      <trkpt lat="46.4498" lon="6.03207">
        <ele>1253.6</ele>
        <time>2012-08-13T17:50:12.000Z</time>
      </trkpt>
      <trkpt lat="46.4498" lon="6.03214">
        <ele>1253.5</ele>
        <time>2012-08-13T17:50:18.000Z</time>
      </trkpt>
      <trkpt lat="46.44981" lon="6.0322">
        <ele>1259.6</ele>
        <time>2012-08-13T17:50:34.000Z</time>
      </trkpt>
      <trkpt lat="46.44985" lon="6.03224">
        <ele>1261.9</ele>
        <time>2012-08-13T17:52:26.000Z</time>
      </trkpt>
      <trkpt lat="46.44987" lon="6.03232">
        <ele>1263.8</ele>
        <time>2012-08-13T17:52:41.000Z</time>
      </trkpt>
      <trkpt lat="46.44988" lon="6.03239">
        <ele>1262.2</ele>
        <time>2012-08-13T17:52:46.000Z</time>
      </trkpt>
      <trkpt lat="46.44987" lon="6.03246">
        <ele>1258.1</ele>
        <time>2012-08-13T17:52:50.000Z</time>
      </trkpt>
      <trkpt lat="46.44987" lon="6.03253">
        <ele>1255.2</ele>
        <time>2012-08-13T17:52:54.000Z</time>
      </trkpt>
      <trkpt lat="46.4499" lon="6.03259">
        <ele>1255.8</ele>
        <time>2012-08-13T17:52:58.000Z</time>
      </trkpt>
      <trkpt lat="46.44992" lon="6.03266">
        <ele>1255.3</ele>
        <time>2012-08-13T17:53:01.000Z</time>
      </trkpt>
      <trkpt lat="46.44995" lon="6.03274">
        <ele>1250.9</ele>
        <time>2012-08-13T17:53:04.000Z</time>
      </trkpt>
      <trkpt lat="46.44998" lon="6.03281">
        <ele>1250.5</ele>
        <time>2012-08-13T17:53:07.603Z</time>
      </trkpt>
      <trkpt lat="46.45003" lon="6.03285">
        <ele>1249.1</ele>
        <time>2012-08-13T17:53:11.000Z</time>
      </trkpt>
      <trkpt lat="46.45007" lon="6.0329">
        <ele>1248.5</ele>
        <time>2012-08-13T17:53:14.000Z</time>
      </trkpt>
      <trkpt lat="46.45011" lon="6.03295">
        <ele>1246.9</ele>
        <time>2012-08-13T17:53:17.000Z</time>
      </trkpt>
      <trkpt lat="46.45013" lon="6.03302">
        <ele>1245.8</ele>
        <time>2012-08-13T17:53:20.000Z</time>
      </trkpt>
      <trkpt lat="46.45015" lon="6.03311">
        <ele>1249.1</ele>
        <time>2012-08-13T17:53:23.000Z</time>
      </trkpt>
      <trkpt lat="46.45018" lon="6.03321">
        <ele>1248.4</ele>
        <time>2012-08-13T17:53:26.000Z</time>
      </trkpt>
      <trkpt lat="46.4502" lon="6.03331">
        <ele>1245.1</ele>
        <time>2012-08-13T17:53:29.000Z</time>
      </trkpt>
      <trkpt lat="46.45021" lon="6.03339">
        <ele>1243.4</ele>
        <time>2012-08-13T17:53:32.000Z</time>
      </trkpt>
      <trkpt lat="46.45027" lon="6.03339">
        <ele>1244.1</ele>
        <time>2012-08-13T17:53:35.000Z</time>
      </trkpt>
      <trkpt lat="46.45032" lon="6.03338">
        <ele>1244.3</ele>
        <time>2012-08-13T17:53:37.000Z</time>
      </trkpt>
      <trkpt lat="46.45037" lon="6.03341">
        <ele>1246.4</ele>
        <time>2012-08-13T17:53:40.000Z</time>
      </trkpt>
      <trkpt lat="46.45039" lon="6.03347">
        <ele>1239.3</ele>
        <time>2012-08-13T17:53:42.000Z</time>
      </trkpt>
      <trkpt lat="46.4504" lon="6.03355">
        <ele>1239.5</ele>
        <time>2012-08-13T17:53:44.000Z</time>
      </trkpt>
      <trkpt lat="46.4504" lon="6.03363">
        <ele>1240.8</ele>
        <time>2012-08-13T17:53:46.000Z</time>
      </trkpt>
      <trkpt lat="46.45042" lon="6.0337">
        <ele>1241.2</ele>
        <time>2012-08-13T17:53:48.000Z</time>
      </trkpt>
      <trkpt lat="46.45045" lon="6.03377">
        <ele>1243.2</ele>
        <time>2012-08-13T17:53:51.000Z</time>
      </trkpt>
      <trkpt lat="46.45045" lon="6.03384">
        <ele>1245.3</ele>
        <time>2012-08-13T17:53:53.000Z</time>
      </trkpt>
      <trkpt lat="46.45045" lon="6.03391">
        <ele>1247.6</ele>
        <time>2012-08-13T17:53:55.000Z</time>
      </trkpt>
      <trkpt lat="46.45045" lon="6.03399">
        <ele>1248.4</ele>
        <time>2012-08-13T17:53:57.000Z</time>
      </trkpt>
      <trkpt lat="46.45045" lon="6.03407">
        <ele>1249.9</ele>
        <time>2012-08-13T17:53:59.000Z</time>
      </trkpt>
      <trkpt lat="46.45044" lon="6.03415">
        <ele>1249</ele>
        <time>2012-08-13T17:54:01.000Z</time>
      </trkpt>
      <trkpt lat="46.45043" lon="6.03422">
        <ele>1250</ele>
        <time>2012-08-13T17:54:03.000Z</time>
      </trkpt>
      <trkpt lat="46.45042" lon="6.0343">
        <ele>1251.3</ele>
        <time>2012-08-13T17:54:06.000Z</time>
      </trkpt>
      <trkpt lat="46.4504" lon="6.03441">
        <ele>1250.4</ele>
        <time>2012-08-13T17:54:10.000Z</time>
      </trkpt>
      <trkpt lat="46.45038" lon="6.03449">
        <ele>1250.4</ele>
        <time>2012-08-13T17:54:12.000Z</time>
      </trkpt>
      <trkpt lat="46.45036" lon="6.03457">
        <ele>1247.5</ele>
        <time>2012-08-13T17:54:14.000Z</time>
      </trkpt>
      <trkpt lat="46.45033" lon="6.03465">
        <ele>1248.5</ele>
        <time>2012-08-13T17:54:16.000Z</time>
      </trkpt>
      <trkpt lat="46.45032" lon="6.03471">
        <ele>1246.4</ele>
        <time>2012-08-13T17:54:18.000Z</time>
      </trkpt>
      <trkpt lat="46.4503" lon="6.03479">
        <ele>1247.9</ele>
        <time>2012-08-13T17:54:21.000Z</time>
      </trkpt>
      <trkpt lat="46.45028" lon="6.03488">
        <ele>1249.9</ele>
        <time>2012-08-13T17:54:24.000Z</time>
      </trkpt>
      <trkpt lat="46.45025" lon="6.03497">
        <ele>1244.9</ele>
        <time>2012-08-13T17:54:27.000Z</time>
      </trkpt>
      <trkpt lat="46.45025" lon="6.03504">
        <ele>1246.8</ele>
        <time>2012-08-13T17:54:29.000Z</time>
      </trkpt>
      <trkpt lat="46.45024" lon="6.0351">
        <ele>1246.9</ele>
        <time>2012-08-13T17:54:31.000Z</time>
      </trkpt>
      <trkpt lat="46.45024" lon="6.03517">
        <ele>1246.3</ele>
        <time>2012-08-13T17:54:33.000Z</time>
      </trkpt>
      <trkpt lat="46.45024" lon="6.03526">
        <ele>1246.3</ele>
        <time>2012-08-13T17:54:36.000Z</time>
      </trkpt>
      <trkpt lat="46.45024" lon="6.03533">
        <ele>1244</ele>
        <time>2012-08-13T17:54:38.000Z</time>
      </trkpt>
      <trkpt lat="46.45022" lon="6.03544">
        <ele>1242.1</ele>
        <time>2012-08-13T17:54:41.000Z</time>
      </trkpt>
      <trkpt lat="46.45022" lon="6.03553">
        <ele>1242.3</ele>
        <time>2012-08-13T17:54:43.000Z</time>
      </trkpt>
      <trkpt lat="46.45022" lon="6.0356">
        <ele>1242</ele>
        <time>2012-08-13T17:54:45.000Z</time>
      </trkpt>
      <trkpt lat="46.45022" lon="6.03568">
        <ele>1238.9</ele>
        <time>2012-08-13T17:54:47.000Z</time>
      </trkpt>
      <trkpt lat="46.45022" lon="6.03574">
        <ele>1239.1</ele>
        <time>2012-08-13T17:54:49.000Z</time>
      </trkpt>
      <trkpt lat="46.45023" lon="6.03584">
        <ele>1236.9</ele>
        <time>2012-08-13T17:54:52.000Z</time>
      </trkpt>
      <trkpt lat="46.45024" lon="6.0359">
        <ele>1236.6</ele>
        <time>2012-08-13T17:54:54.000Z</time>
      </trkpt>
      <trkpt lat="46.45025" lon="6.03598">
        <ele>1238</ele>
        <time>2012-08-13T17:54:57.000Z</time>
      </trkpt>
      <trkpt lat="46.45026" lon="6.03606">
        <ele>1235.5</ele>
        <time>2012-08-13T17:55:00.000Z</time>
      </trkpt>
      <trkpt lat="46.45028" lon="6.03615">
        <ele>1233.2</ele>
        <time>2012-08-13T17:55:03.000Z</time>
      </trkpt>
      <trkpt lat="46.4503" lon="6.03623">
        <ele>1229.1</ele>
        <time>2012-08-13T17:55:06.000Z</time>
      </trkpt>
      <trkpt lat="46.45032" lon="6.03629">
        <ele>1228.5</ele>
        <time>2012-08-13T17:55:10.000Z</time>
      </trkpt>
      <trkpt lat="46.45035" lon="6.03634">
        <ele>1228.4</ele>
        <time>2012-08-13T17:55:14.000Z</time>
      </trkpt>
      <trkpt lat="46.45037" lon="6.03641">
        <ele>1229.2</ele>
        <time>2012-08-13T17:55:17.000Z</time>
      </trkpt>
      <trkpt lat="46.45038" lon="6.0365">
        <ele>1230.7</ele>
        <time>2012-08-13T17:55:20.000Z</time>
      </trkpt>
      <trkpt lat="46.45036" lon="6.03658">
        <ele>1231.8</ele>
        <time>2012-08-13T17:55:22.000Z</time>
      </trkpt>
      <trkpt lat="46.45033" lon="6.03666">
        <ele>1233.4</ele>
        <time>2012-08-13T17:55:24.000Z</time>
      </trkpt>
      <trkpt lat="46.4503" lon="6.03675">
        <ele>1234.9</ele>
        <time>2012-08-13T17:55:26.000Z</time>
      </trkpt>
      <trkpt lat="46.45027" lon="6.03682">
        <ele>1233.8</ele>
        <time>2012-08-13T17:55:28.000Z</time>
      </trkpt>
      <trkpt lat="46.45024" lon="6.03689">
        <ele>1233.4</ele>
        <time>2012-08-13T17:55:30.000Z</time>
      </trkpt>
      <trkpt lat="46.4502" lon="6.03694">
        <ele>1234.1</ele>
        <time>2012-08-13T17:55:32.000Z</time>
      </trkpt>
      <trkpt lat="46.45017" lon="6.037">
        <ele>1235.1</ele>
        <time>2012-08-13T17:55:34.000Z</time>
      </trkpt>
      <trkpt lat="46.45014" lon="6.03705">
        <ele>1231.8</ele>
        <time>2012-08-13T17:55:36.000Z</time>
      </trkpt>
      <trkpt lat="46.45009" lon="6.03712">
        <ele>1230.3</ele>
        <time>2012-08-13T17:55:39.000Z</time>
      </trkpt>
      <trkpt lat="46.45004" lon="6.03716">
        <ele>1230.8</ele>
        <time>2012-08-13T17:55:41.000Z</time>
      </trkpt>
      <trkpt lat="46.45" lon="6.03722">
        <ele>1232.1</ele>
        <time>2012-08-13T17:55:43.000Z</time>
      </trkpt>
      <trkpt lat="46.44996" lon="6.03727">
        <ele>1233</ele>
        <time>2012-08-13T17:55:45.000Z</time>
      </trkpt>
      <trkpt lat="46.44991" lon="6.03732">
        <ele>1234.5</ele>
        <time>2012-08-13T17:55:47.000Z</time>
      </trkpt>
      <trkpt lat="46.44985" lon="6.03737">
        <ele>1241</ele>
        <time>2012-08-13T17:55:49.000Z</time>
      </trkpt>
      <trkpt lat="46.4498" lon="6.03742">
        <ele>1242.2</ele>
        <time>2012-08-13T17:55:51.000Z</time>
      </trkpt>
      <trkpt lat="46.44975" lon="6.03747">
        <ele>1243.3</ele>
        <time>2012-08-13T17:55:53.000Z</time>
      </trkpt>
      <trkpt lat="46.4497" lon="6.03752">
        <ele>1244</ele>
        <time>2012-08-13T17:55:55.000Z</time>
      </trkpt>
      <trkpt lat="46.44966" lon="6.03758">
        <ele>1241.9</ele>
        <time>2012-08-13T17:55:57.000Z</time>
      </trkpt>
      <trkpt lat="46.44962" lon="6.03763">
        <ele>1242.6</ele>
        <time>2012-08-13T17:55:59.000Z</time>
      </trkpt>
      <trkpt lat="46.44958" lon="6.03768">
        <ele>1242.9</ele>
        <time>2012-08-13T17:56:01.000Z</time>
      </trkpt>
      <trkpt lat="46.44952" lon="6.03772">
        <ele>1242.5</ele>
        <time>2012-08-13T17:56:04.000Z</time>
      </trkpt>
      <trkpt lat="46.44948" lon="6.03774">
        <ele>1243.6</ele>
        <time>2012-08-13T17:56:06.000Z</time>
      </trkpt>
      <trkpt lat="46.44943" lon="6.03776">
        <ele>1243.7</ele>
        <time>2012-08-13T17:56:09.000Z</time>
      </trkpt>
      <trkpt lat="46.44938" lon="6.03778">
        <ele>1243.2</ele>
        <time>2012-08-13T17:56:12.000Z</time>
      </trkpt>
      <trkpt lat="46.44933" lon="6.03781">
        <ele>1243.2</ele>
        <time>2012-08-13T17:56:14.000Z</time>
      </trkpt>
      <trkpt lat="46.44929" lon="6.03787">
        <ele>1242.9</ele>
        <time>2012-08-13T17:56:17.000Z</time>
      </trkpt>
      <trkpt lat="46.44926" lon="6.03793">
        <ele>1241.7</ele>
        <time>2012-08-13T17:56:24.000Z</time>
      </trkpt>
      <trkpt lat="46.44921" lon="6.03799">
        <ele>1238</ele>
        <time>2012-08-13T17:56:27.000Z</time>
      </trkpt>
      <trkpt lat="46.44917" lon="6.03804">
        <ele>1234.5</ele>
        <time>2012-08-13T17:56:29.000Z</time>
      </trkpt>
      <trkpt lat="46.44912" lon="6.03808">
        <ele>1233.3</ele>
        <time>2012-08-13T17:56:31.000Z</time>
      </trkpt>
      <trkpt lat="46.44908" lon="6.03811">
        <ele>1232.3</ele>
        <time>2012-08-13T17:56:33.000Z</time>
      </trkpt>
      <trkpt lat="46.44904" lon="6.03816">
        <ele>1234.3</ele>
        <time>2012-08-13T17:56:35.000Z</time>
      </trkpt>
      <trkpt lat="46.44899" lon="6.03823">
        <ele>1233.9</ele>
        <time>2012-08-13T17:56:37.000Z</time>
      </trkpt>
      <trkpt lat="46.44895" lon="6.03829">
        <ele>1233.4</ele>
        <time>2012-08-13T17:56:39.000Z</time>
      </trkpt>
      <trkpt lat="46.44891" lon="6.03835">
        <ele>1231.8</ele>
        <time>2012-08-13T17:56:41.000Z</time>
      </trkpt>
      <trkpt lat="46.44887" lon="6.03841">
        <ele>1229.5</ele>
        <time>2012-08-13T17:56:43.000Z</time>
      </trkpt>
      <trkpt lat="46.44885" lon="6.03847">
        <ele>1228.5</ele>
        <time>2012-08-13T17:56:45.000Z</time>
      </trkpt>
      <trkpt lat="46.44882" lon="6.03853">
        <ele>1228</ele>
        <time>2012-08-13T17:56:47.000Z</time>
      </trkpt>
      <trkpt lat="46.44877" lon="6.03859">
        <ele>1228.6</ele>
        <time>2012-08-13T17:56:49.000Z</time>
      </trkpt>
      <trkpt lat="46.44873" lon="6.03864">
        <ele>1226.5</ele>
        <time>2012-08-13T17:56:51.000Z</time>
      </trkpt>
      <trkpt lat="46.44868" lon="6.03869">
        <ele>1225.7</ele>
        <time>2012-08-13T17:56:53.000Z</time>
      </trkpt>
      <trkpt lat="46.44864" lon="6.03871">
        <ele>1224.7</ele>
        <time>2012-08-13T17:56:55.000Z</time>
      </trkpt>
      <trkpt lat="46.44859" lon="6.03874">
        <ele>1218.7</ele>
        <time>2012-08-13T17:56:59.000Z</time>
      </trkpt>
      <trkpt lat="46.44854" lon="6.03876">
        <ele>1221.4</ele>
        <time>2012-08-13T17:57:03.000Z</time>
      </trkpt>
      <trkpt lat="46.44849" lon="6.03877">
        <ele>1221.8</ele>
        <time>2012-08-13T17:57:06.000Z</time>
      </trkpt>
      <trkpt lat="46.44843" lon="6.0388">
        <ele>1222.5</ele>
        <time>2012-08-13T17:57:10.000Z</time>
      </trkpt>
      <trkpt lat="46.44839" lon="6.03884">
        <ele>1222.1</ele>
        <time>2012-08-13T17:57:12.000Z</time>
      </trkpt>
      <trkpt lat="46.44836" lon="6.0389">
        <ele>1221.6</ele>
        <time>2012-08-13T17:57:14.000Z</time>
      </trkpt>
      <trkpt lat="46.44831" lon="6.03895">
        <ele>1222.2</ele>
        <time>2012-08-13T17:57:16.000Z</time>
      </trkpt>
      <trkpt lat="46.44828" lon="6.039">
        <ele>1221.1</ele>
        <time>2012-08-13T17:57:18.000Z</time>
      </trkpt>
      <trkpt lat="46.44824" lon="6.03906">
        <ele>1221.8</ele>
        <time>2012-08-13T17:57:20.000Z</time>
      </trkpt>
      <trkpt lat="46.4482" lon="6.03912">
        <ele>1222.2</ele>
        <time>2012-08-13T17:57:22.000Z</time>
      </trkpt>
      <trkpt lat="46.44816" lon="6.03918">
        <ele>1222.1</ele>
        <time>2012-08-13T17:57:24.000Z</time>
      </trkpt>
      <trkpt lat="46.44814" lon="6.03924">
        <ele>1222.2</ele>
        <time>2012-08-13T17:57:26.000Z</time>
      </trkpt>
      <trkpt lat="46.44811" lon="6.0393">
        <ele>1222.2</ele>
        <time>2012-08-13T17:57:28.000Z</time>
      </trkpt>
      <trkpt lat="46.44808" lon="6.03936">
        <ele>1222.5</ele>
        <time>2012-08-13T17:57:30.000Z</time>
      </trkpt>
      <trkpt lat="46.44804" lon="6.0394">
        <ele>1222.4</ele>
        <time>2012-08-13T17:57:32.000Z</time>
      </trkpt>
      <trkpt lat="46.44799" lon="6.03944">
        <ele>1222.8</ele>
        <time>2012-08-13T17:57:35.000Z</time>
      </trkpt>
      <trkpt lat="46.44795" lon="6.03948">
        <ele>1222.8</ele>
        <time>2012-08-13T17:57:37.000Z</time>
      </trkpt>
      <trkpt lat="46.44791" lon="6.03953">
        <ele>1222.1</ele>
        <time>2012-08-13T17:57:40.000Z</time>
      </trkpt>
      <trkpt lat="46.44788" lon="6.03959">
        <ele>1222.7</ele>
        <time>2012-08-13T17:57:43.000Z</time>
      </trkpt>
      <trkpt lat="46.44784" lon="6.03966">
        <ele>1222.1</ele>
        <time>2012-08-13T17:57:46.000Z</time>
      </trkpt>
      <trkpt lat="46.44781" lon="6.03971">
        <ele>1221.5</ele>
        <time>2012-08-13T17:57:48.000Z</time>
      </trkpt>
      <trkpt lat="46.44777" lon="6.03977">
        <ele>1221</ele>
        <time>2012-08-13T17:57:50.000Z</time>
      </trkpt>
      <trkpt lat="46.44774" lon="6.03983">
        <ele>1221.7</ele>
        <time>2012-08-13T17:57:52.000Z</time>
      </trkpt>
      <trkpt lat="46.4477" lon="6.0399">
        <ele>1222.3</ele>
        <time>2012-08-13T17:57:54.000Z</time>
      </trkpt>
      <trkpt lat="46.44766" lon="6.03998">
        <ele>1222.6</ele>
        <time>2012-08-13T17:57:56.000Z</time>
      </trkpt>
      <trkpt lat="46.44763" lon="6.04005">
        <ele>1222.4</ele>
        <time>2012-08-13T17:57:58.000Z</time>
      </trkpt>
      <trkpt lat="46.4476" lon="6.04011">
        <ele>1221.9</ele>
        <time>2012-08-13T17:58:00.000Z</time>
      </trkpt>
      <trkpt lat="46.44758" lon="6.0402">
        <ele>1220.7</ele>
        <time>2012-08-13T17:58:03.000Z</time>
      </trkpt>
      <trkpt lat="46.44756" lon="6.04028">
        <ele>1221.1</ele>
        <time>2012-08-13T17:58:06.000Z</time>
      </trkpt>
      <trkpt lat="46.44754" lon="6.04036">
        <ele>1220.8</ele>
        <time>2012-08-13T17:58:09.000Z</time>
      </trkpt>
      <trkpt lat="46.44753" lon="6.04044">
        <ele>1221.1</ele>
        <time>2012-08-13T17:58:12.000Z</time>
      </trkpt>
      <trkpt lat="46.44752" lon="6.04052">
        <ele>1219.3</ele>
        <time>2012-08-13T17:58:16.000Z</time>
      </trkpt>
      <trkpt lat="46.44748" lon="6.0406">
        <ele>1218.2</ele>
        <time>2012-08-13T17:58:20.000Z</time>
      </trkpt>
      <trkpt lat="46.44745" lon="6.04069">
        <ele>1217.5</ele>
        <time>2012-08-13T17:58:22.000Z</time>
      </trkpt>
      <trkpt lat="46.44742" lon="6.04079">
        <ele>1217.5</ele>
        <time>2012-08-13T17:58:24.000Z</time>
      </trkpt>
      <trkpt lat="46.44739" lon="6.0409">
        <ele>1216.4</ele>
        <time>2012-08-13T17:58:26.000Z</time>
      </trkpt>
      <trkpt lat="46.44738" lon="6.04097">
        <ele>1214.7</ele>
        <time>2012-08-13T17:58:27.000Z</time>
      </trkpt>
      <trkpt lat="46.44737" lon="6.04105">
        <ele>1213.4</ele>
        <time>2012-08-13T17:58:28.000Z</time>
      </trkpt>
      <trkpt lat="46.44737" lon="6.04114">
        <ele>1212</ele>
        <time>2012-08-13T17:58:29.000Z</time>
      </trkpt>
      <trkpt lat="46.44737" lon="6.04122">
        <ele>1213.1</ele>
        <time>2012-08-13T17:58:30.000Z</time>
      </trkpt>
      <trkpt lat="46.44738" lon="6.0413">
        <ele>1212.6</ele>
        <time>2012-08-13T17:58:31.000Z</time>
      </trkpt>
      <trkpt lat="46.44739" lon="6.04138">
        <ele>1211</ele>
        <time>2012-08-13T17:58:32.000Z</time>
      </trkpt>
      <trkpt lat="46.4474" lon="6.04145">
        <ele>1211</ele>
        <time>2012-08-13T17:58:33.000Z</time>
      </trkpt>
      <trkpt lat="46.4474" lon="6.04152">
        <ele>1209.4</ele>
        <time>2012-08-13T17:58:34.000Z</time>
      </trkpt>
      <trkpt lat="46.44742" lon="6.0416">
        <ele>1209.7</ele>
        <time>2012-08-13T17:58:35.000Z</time>
      </trkpt>
      <trkpt lat="46.44743" lon="6.04167">
        <ele>1209.6</ele>
        <time>2012-08-13T17:58:36.000Z</time>
      </trkpt>
      <trkpt lat="46.44744" lon="6.04174">
        <ele>1209.5</ele>
        <time>2012-08-13T17:58:37.000Z</time>
      </trkpt>
      <trkpt lat="46.44746" lon="6.0418">
        <ele>1209</ele>
        <time>2012-08-13T17:58:38.000Z</time>
      </trkpt>
      <trkpt lat="46.44748" lon="6.04187">
        <ele>1209.7</ele>
        <time>2012-08-13T17:58:39.000Z</time>
      </trkpt>
      <trkpt lat="46.4475" lon="6.04193">
        <ele>1208.7</ele>
        <time>2012-08-13T17:58:40.000Z</time>
      </trkpt>
      <trkpt lat="46.44754" lon="6.04203">
        <ele>1208.3</ele>
        <time>2012-08-13T17:58:42.000Z</time>
      </trkpt>
      <trkpt lat="46.44757" lon="6.04209">
        <ele>1208.4</ele>
        <time>2012-08-13T17:58:43.000Z</time>
      </trkpt>
      <trkpt lat="46.4476" lon="6.04214">
        <ele>1208.4</ele>
        <time>2012-08-13T17:58:44.000Z</time>
      </trkpt>
      <trkpt lat="46.44763" lon="6.04219">
        <ele>1207.3</ele>
        <time>2012-08-13T17:58:45.000Z</time>
      </trkpt>
      <trkpt lat="46.44768" lon="6.0423">
        <ele>1206.9</ele>
        <time>2012-08-13T17:58:46.000Z</time>
      </trkpt>
      <trkpt lat="46.44772" lon="6.04232">
        <ele>1207</ele>
        <time>2012-08-13T17:58:47.000Z</time>
      </trkpt>
      <trkpt lat="46.44776" lon="6.04238">
        <ele>1207.4</ele>
        <time>2012-08-13T17:58:48.000Z</time>
      </trkpt>
      <trkpt lat="46.44774" lon="6.04254">
        <ele>1207.3</ele>
        <time>2012-08-13T17:58:49.000Z</time>
      </trkpt>
      <trkpt lat="46.44774" lon="6.04261">
        <ele>1207.4</ele>
        <time>2012-08-13T17:58:50.000Z</time>
      </trkpt>
      <trkpt lat="46.44774" lon="6.0427">
        <ele>1206.6</ele>
        <time>2012-08-13T17:58:51.000Z</time>
      </trkpt>
      <trkpt lat="46.44773" lon="6.04277">
        <ele>1206.6</ele>
        <time>2012-08-13T17:58:52.000Z</time>
      </trkpt>
      <trkpt lat="46.44778" lon="6.04282">
        <ele>1206.3</ele>
        <time>2012-08-13T17:58:56.000Z</time>
      </trkpt>
      <trkpt lat="46.44779" lon="6.04288">
        <ele>1205</ele>
        <time>2012-08-13T17:58:58.000Z</time>
      </trkpt>
      <trkpt lat="46.44783" lon="6.04292">
        <ele>1205.7</ele>
        <time>2012-08-13T17:59:01.000Z</time>
      </trkpt>
      <trkpt lat="46.44788" lon="6.04294">
        <ele>1204.2</ele>
        <time>2012-08-13T17:59:06.000Z</time>
      </trkpt>
      <trkpt lat="46.44793" lon="6.04295">
        <ele>1203.9</ele>
        <time>2012-08-13T17:59:15.000Z</time>
      </trkpt>
      <trkpt lat="46.44797" lon="6.04297">
        <ele>1203.8</ele>
        <time>2012-08-13T17:59:21.000Z</time>
      </trkpt>
      <trkpt lat="46.44802" lon="6.04302">
        <ele>1202.2</ele>
        <time>2012-08-13T17:59:25.000Z</time>
      </trkpt>
      <trkpt lat="46.44807" lon="6.04309">
        <ele>1202.2</ele>
        <time>2012-08-13T17:59:28.000Z</time>
      </trkpt>
      <trkpt lat="46.44816" lon="6.04312">
        <ele>1201.3</ele>
        <time>2012-08-13T17:59:31.000Z</time>
      </trkpt>
      <trkpt lat="46.44821" lon="6.04313">
        <ele>1201.3</ele>
        <time>2012-08-13T17:59:33.000Z</time>
      </trkpt>
      <trkpt lat="46.44826" lon="6.04315">
        <ele>1201.4</ele>
        <time>2012-08-13T17:59:36.000Z</time>
      </trkpt>
      <trkpt lat="46.44831" lon="6.04317">
        <ele>1201.1</ele>
        <time>2012-08-13T17:59:38.000Z</time>
      </trkpt>
      <trkpt lat="46.44835" lon="6.04321">
        <ele>1200.7</ele>
        <time>2012-08-13T17:59:40.000Z</time>
      </trkpt>
      <trkpt lat="46.44842" lon="6.04327">
        <ele>1199.6</ele>
        <time>2012-08-13T17:59:42.000Z</time>
      </trkpt>
      <trkpt lat="46.44848" lon="6.0433">
        <ele>1199.6</ele>
        <time>2012-08-13T17:59:44.000Z</time>
      </trkpt>
      <trkpt lat="46.44852" lon="6.04335">
        <ele>1198.9</ele>
        <time>2012-08-13T17:59:46.000Z</time>
      </trkpt>
      <trkpt lat="46.44856" lon="6.0434">
        <ele>1198.7</ele>
        <time>2012-08-13T17:59:49.000Z</time>
      </trkpt>
      <trkpt lat="46.44858" lon="6.04347">
        <ele>1198.3</ele>
        <time>2012-08-13T17:59:52.000Z</time>
      </trkpt>
      <trkpt lat="46.44862" lon="6.04353">
        <ele>1198.6</ele>
        <time>2012-08-13T17:59:56.000Z</time>
      </trkpt>
      <trkpt lat="46.44865" lon="6.0436">
        <ele>1196.1</ele>
        <time>2012-08-13T18:00:00.000Z</time>
      </trkpt>
      <trkpt lat="46.44868" lon="6.04367">
        <ele>1192.8</ele>
        <time>2012-08-13T18:00:04.000Z</time>
      </trkpt>
      <trkpt lat="46.44873" lon="6.04373">
        <ele>1192</ele>
        <time>2012-08-13T18:00:07.659Z</time>
      </trkpt>
      <trkpt lat="46.44875" lon="6.04379">
        <ele>1192.3</ele>
        <time>2012-08-13T18:00:11.000Z</time>
      </trkpt>
      <trkpt lat="46.44879" lon="6.04385">
        <ele>1191.7</ele>
        <time>2012-08-13T18:00:15.000Z</time>
      </trkpt>
      <trkpt lat="46.44884" lon="6.04388">
        <ele>1190.4</ele>
        <time>2012-08-13T18:00:17.000Z</time>
      </trkpt>
      <trkpt lat="46.44888" lon="6.0439">
        <ele>1188.6</ele>
        <time>2012-08-13T18:00:19.000Z</time>
      </trkpt>
      <trkpt lat="46.44893" lon="6.04393">
        <ele>1188.2</ele>
        <time>2012-08-13T18:00:21.000Z</time>
      </trkpt>
      <trkpt lat="46.44897" lon="6.04398">
        <ele>1187.4</ele>
        <time>2012-08-13T18:00:23.000Z</time>
      </trkpt>
      <trkpt lat="46.449" lon="6.04403">
        <ele>1187.5</ele>
        <time>2012-08-13T18:00:25.000Z</time>
      </trkpt>
      <trkpt lat="46.44904" lon="6.04408">
        <ele>1187.4</ele>
        <time>2012-08-13T18:00:27.000Z</time>
      </trkpt>
      <trkpt lat="46.44909" lon="6.04414">
        <ele>1186.2</ele>
        <time>2012-08-13T18:00:30.000Z</time>
      </trkpt>
      <trkpt lat="46.44912" lon="6.0442">
        <ele>1186.5</ele>
        <time>2012-08-13T18:00:32.000Z</time>
      </trkpt>
      <trkpt lat="46.44918" lon="6.04422">
        <ele>1186.8</ele>
        <time>2012-08-13T18:00:34.000Z</time>
      </trkpt>
      <trkpt lat="46.44923" lon="6.04423">
        <ele>1186.1</ele>
        <time>2012-08-13T18:00:36.000Z</time>
      </trkpt>
      <trkpt lat="46.44928" lon="6.04425">
        <ele>1186.6</ele>
        <time>2012-08-13T18:00:38.000Z</time>
      </trkpt>
      <trkpt lat="46.44933" lon="6.04428">
        <ele>1192.1</ele>
        <time>2012-08-13T18:00:40.000Z</time>
      </trkpt>
      <trkpt lat="46.44939" lon="6.0443">
        <ele>1194.1</ele>
        <time>2012-08-13T18:00:43.000Z</time>
      </trkpt>
      <trkpt lat="46.44944" lon="6.04434">
        <ele>1193.6</ele>
        <time>2012-08-13T18:00:46.000Z</time>
      </trkpt>
      <trkpt lat="46.44949" lon="6.04435">
        <ele>1198.7</ele>
        <time>2012-08-13T18:00:49.000Z</time>
      </trkpt>
      <trkpt lat="46.44954" lon="6.04436">
        <ele>1198.5</ele>
        <time>2012-08-13T18:00:52.000Z</time>
      </trkpt>
      <trkpt lat="46.44959" lon="6.04438">
        <ele>1198.9</ele>
        <time>2012-08-13T18:00:54.000Z</time>
      </trkpt>
      <trkpt lat="46.44965" lon="6.04439">
        <ele>1199</ele>
        <time>2012-08-13T18:00:57.000Z</time>
      </trkpt>
      <trkpt lat="46.44971" lon="6.04443">
        <ele>1197.9</ele>
        <time>2012-08-13T18:01:00.000Z</time>
      </trkpt>
      <trkpt lat="46.44975" lon="6.04446">
        <ele>1197.6</ele>
        <time>2012-08-13T18:01:02.000Z</time>
      </trkpt>
      <trkpt lat="46.44981" lon="6.04451">
        <ele>1196.7</ele>
        <time>2012-08-13T18:01:05.000Z</time>
      </trkpt>
      <trkpt lat="46.44987" lon="6.04457">
        <ele>1196.8</ele>
        <time>2012-08-13T18:01:09.000Z</time>
      </trkpt>
      <trkpt lat="46.44992" lon="6.04466">
        <ele>1196.8</ele>
        <time>2012-08-13T18:01:16.000Z</time>
      </trkpt>
      <trkpt lat="46.44997" lon="6.04467">
        <ele>1196.9</ele>
        <time>2012-08-13T18:01:23.000Z</time>
      </trkpt>
      <trkpt lat="46.45002" lon="6.04469">
        <ele>1196.9</ele>
        <time>2012-08-13T18:01:27.000Z</time>
      </trkpt>
      <trkpt lat="46.45006" lon="6.0447">
        <ele>1196.9</ele>
        <time>2012-08-13T18:01:31.000Z</time>
      </trkpt>
      <trkpt lat="46.45011" lon="6.04473">
        <ele>1196.9</ele>
        <time>2012-08-13T18:01:36.000Z</time>
      </trkpt>
      <trkpt lat="46.4504" lon="6.04446">
        <ele>1197.6</ele>
        <time>2012-08-13T18:01:39.000Z</time>
      </trkpt>
      <trkpt lat="46.45018" lon="6.04428">
        <ele>1189.2</ele>
        <time>2012-08-13T18:01:40.000Z</time>
      </trkpt>
      <trkpt lat="46.45022" lon="6.04432">
        <ele>1182.7</ele>
        <time>2012-08-13T18:01:47.000Z</time>
      </trkpt>
      <trkpt lat="46.45024" lon="6.04438">
        <ele>1180.6</ele>
        <time>2012-08-13T18:01:54.000Z</time>
      </trkpt>
      <trkpt lat="46.45025" lon="6.04445">
        <ele>1180.7</ele>
        <time>2012-08-13T18:01:58.000Z</time>
      </trkpt>
      <trkpt lat="46.45033" lon="6.04439">
        <ele>1183.6</ele>
        <time>2012-08-13T18:02:33.000Z</time>
      </trkpt>
      <trkpt lat="46.45038" lon="6.04434">
        <ele>1183.5</ele>
        <time>2012-08-13T18:02:35.000Z</time>
      </trkpt>
      <trkpt lat="46.45042" lon="6.0443">
        <ele>1183</ele>
        <time>2012-08-13T18:02:47.000Z</time>
      </trkpt>
      <trkpt lat="46.45048" lon="6.04429">
        <ele>1182.5</ele>
        <time>2012-08-13T18:02:50.000Z</time>
      </trkpt>
      <trkpt lat="46.45057" lon="6.04427">
        <ele>1184.3</ele>
        <time>2012-08-13T18:02:52.000Z</time>
      </trkpt>
      <trkpt lat="46.45062" lon="6.04427">
        <ele>1183.6</ele>
        <time>2012-08-13T18:02:53.000Z</time>
      </trkpt>
      <trkpt lat="46.45085" lon="6.04421">
        <ele>1182.7</ele>
        <time>2012-08-13T18:02:54.000Z</time>
      </trkpt>
      <trkpt lat="46.45092" lon="6.0442">
        <ele>1185.8</ele>
        <time>2012-08-13T18:02:56.000Z</time>
      </trkpt>
      <trkpt lat="46.45099" lon="6.04418">
        <ele>1186.5</ele>
        <time>2012-08-13T18:02:58.000Z</time>
      </trkpt>
      <trkpt lat="46.45104" lon="6.04415">
        <ele>1188</ele>
        <time>2012-08-13T18:03:00.000Z</time>
      </trkpt>
      <trkpt lat="46.45108" lon="6.04412">
        <ele>1189.5</ele>
        <time>2012-08-13T18:03:02.000Z</time>
      </trkpt>
      <trkpt lat="46.45113" lon="6.04408">
        <ele>1190.6</ele>
        <time>2012-08-13T18:03:05.000Z</time>
      </trkpt>
      <trkpt lat="46.45118" lon="6.04406">
        <ele>1193.5</ele>
        <time>2012-08-13T18:03:07.000Z</time>
      </trkpt>
      <trkpt lat="46.45123" lon="6.04403">
        <ele>1196.7</ele>
        <time>2012-08-13T18:03:10.000Z</time>
      </trkpt>
      <trkpt lat="46.45128" lon="6.044">
        <ele>1193.8</ele>
        <time>2012-08-13T18:03:14.000Z</time>
      </trkpt>
      <trkpt lat="46.4513" lon="6.04395">
        <ele>1188.9</ele>
        <time>2012-08-13T18:03:20.000Z</time>
      </trkpt>
      <trkpt lat="46.45135" lon="6.04392">
        <ele>1185</ele>
        <time>2012-08-13T18:03:26.000Z</time>
      </trkpt>
      <trkpt lat="46.4514" lon="6.04394">
        <ele>1184.8</ele>
        <time>2012-08-13T18:03:30.000Z</time>
      </trkpt>
      <trkpt lat="46.45145" lon="6.04396">
        <ele>1186.7</ele>
        <time>2012-08-13T18:03:33.000Z</time>
      </trkpt>
      <trkpt lat="46.45149" lon="6.04402">
        <ele>1187.9</ele>
        <time>2012-08-13T18:03:36.000Z</time>
      </trkpt>
      <trkpt lat="46.45154" lon="6.04403">
        <ele>1188.5</ele>
        <time>2012-08-13T18:03:42.000Z</time>
      </trkpt>
      <trkpt lat="46.4516" lon="6.04401">
        <ele>1187.6</ele>
        <time>2012-08-13T18:03:47.000Z</time>
      </trkpt>
      <trkpt lat="46.45165" lon="6.04399">
        <ele>1187.2</ele>
        <time>2012-08-13T18:03:49.000Z</time>
      </trkpt>
      <trkpt lat="46.45171" lon="6.04392">
        <ele>1188.7</ele>
        <time>2012-08-13T18:03:51.000Z</time>
      </trkpt>
      <trkpt lat="46.45178" lon="6.04386">
        <ele>1189.4</ele>
        <time>2012-08-13T18:03:53.000Z</time>
      </trkpt>
      <trkpt lat="46.45183" lon="6.04382">
        <ele>1190.4</ele>
        <time>2012-08-13T18:03:55.000Z</time>
      </trkpt>
      <trkpt lat="46.45188" lon="6.04377">
        <ele>1190.1</ele>
        <time>2012-08-13T18:03:57.000Z</time>
      </trkpt>
      <trkpt lat="46.45192" lon="6.04374">
        <ele>1189.5</ele>
        <time>2012-08-13T18:03:59.000Z</time>
      </trkpt>
      <trkpt lat="46.45198" lon="6.04373">
        <ele>1193.8</ele>
        <time>2012-08-13T18:04:10.000Z</time>
      </trkpt>
      <trkpt lat="46.45202" lon="6.04369">
        <ele>1196.4</ele>
        <time>2012-08-13T18:04:14.000Z</time>
      </trkpt>
      <trkpt lat="46.45206" lon="6.04367">
        <ele>1195.7</ele>
        <time>2012-08-13T18:04:17.000Z</time>
      </trkpt>
      <trkpt lat="46.45211" lon="6.04363">
        <ele>1195.6</ele>
        <time>2012-08-13T18:04:21.000Z</time>
      </trkpt>
      <trkpt lat="46.45217" lon="6.04361">
        <ele>1197.1</ele>
        <time>2012-08-13T18:04:26.000Z</time>
      </trkpt>
      <trkpt lat="46.45222" lon="6.0436">
        <ele>1198.9</ele>
        <time>2012-08-13T18:04:30.000Z</time>
      </trkpt>
      <trkpt lat="46.45226" lon="6.04362">
        <ele>1198.3</ele>
        <time>2012-08-13T18:04:33.000Z</time>
      </trkpt>
      <trkpt lat="46.45231" lon="6.04363">
        <ele>1197.7</ele>
        <time>2012-08-13T18:04:39.000Z</time>
      </trkpt>
      <trkpt lat="46.45235" lon="6.04364">
        <ele>1200.3</ele>
        <time>2012-08-13T18:04:51.000Z</time>
      </trkpt>
      <trkpt lat="46.4524" lon="6.04366">
        <ele>1200.4</ele>
        <time>2012-08-13T18:04:55.000Z</time>
      </trkpt>
      <trkpt lat="46.45243" lon="6.04371">
        <ele>1200.2</ele>
        <time>2012-08-13T18:04:58.000Z</time>
      </trkpt>
      <trkpt lat="46.45248" lon="6.0437">
        <ele>1205.1</ele>
        <time>2012-08-13T18:05:20.000Z</time>
      </trkpt>
      <trkpt lat="46.45253" lon="6.0437">
        <ele>1207.2</ele>
        <time>2012-08-13T18:05:28.000Z</time>
      </trkpt>
      <trkpt lat="46.4526" lon="6.0437">
        <ele>1208.3</ele>
        <time>2012-08-13T18:05:31.000Z</time>
      </trkpt>
      <trkpt lat="46.45266" lon="6.04372">
        <ele>1207.4</ele>
        <time>2012-08-13T18:05:34.000Z</time>
      </trkpt>
      <trkpt lat="46.45271" lon="6.04376">
        <ele>1205.5</ele>
        <time>2012-08-13T18:05:37.000Z</time>
      </trkpt>
      <trkpt lat="46.45276" lon="6.04378">
        <ele>1206.8</ele>
        <time>2012-08-13T18:05:39.000Z</time>
      </trkpt>
      <trkpt lat="46.45281" lon="6.0438">
        <ele>1206.2</ele>
        <time>2012-08-13T18:05:41.000Z</time>
      </trkpt>
      <trkpt lat="46.45286" lon="6.04381">
        <ele>1205.4</ele>
        <time>2012-08-13T18:05:43.000Z</time>
      </trkpt>
      <trkpt lat="46.45291" lon="6.04382">
        <ele>1204.7</ele>
        <time>2012-08-13T18:05:45.000Z</time>
      </trkpt>
      <trkpt lat="46.45298" lon="6.04382">
        <ele>1204.5</ele>
        <time>2012-08-13T18:05:47.000Z</time>
      </trkpt>
      <trkpt lat="46.45307" lon="6.04381">
        <ele>1205</ele>
        <time>2012-08-13T18:05:49.000Z</time>
      </trkpt>
      <trkpt lat="46.45316" lon="6.04382">
        <ele>1204.8</ele>
        <time>2012-08-13T18:05:50.000Z</time>
      </trkpt>
      <trkpt lat="46.45322" lon="6.04384">
        <ele>1204.5</ele>
        <time>2012-08-13T18:05:51.000Z</time>
      </trkpt>
      <trkpt lat="46.45327" lon="6.04385">
        <ele>1204.2</ele>
        <time>2012-08-13T18:05:52.000Z</time>
      </trkpt>
      <trkpt lat="46.45332" lon="6.04386">
        <ele>1203.6</ele>
        <time>2012-08-13T18:05:53.000Z</time>
      </trkpt>
      <trkpt lat="46.45337" lon="6.0439">
        <ele>1203.6</ele>
        <time>2012-08-13T18:05:54.000Z</time>
      </trkpt>
      <trkpt lat="46.45342" lon="6.04393">
        <ele>1203.5</ele>
        <time>2012-08-13T18:05:55.000Z</time>
      </trkpt>
      <trkpt lat="46.4535" lon="6.04394">
        <ele>1204</ele>
        <time>2012-08-13T18:05:56.000Z</time>
      </trkpt>
      <trkpt lat="46.45355" lon="6.04396">
        <ele>1204.4</ele>
        <time>2012-08-13T18:05:57.000Z</time>
      </trkpt>
      <trkpt lat="46.4536" lon="6.04399">
        <ele>1204.7</ele>
        <time>2012-08-13T18:05:58.000Z</time>
      </trkpt>
      <trkpt lat="46.45372" lon="6.04402">
        <ele>1204.8</ele>
        <time>2012-08-13T18:06:00.000Z</time>
      </trkpt>
      <trkpt lat="46.45378" lon="6.04403">
        <ele>1204.8</ele>
        <time>2012-08-13T18:06:01.000Z</time>
      </trkpt>
      <trkpt lat="46.45382" lon="6.04407">
        <ele>1204.9</ele>
        <time>2012-08-13T18:06:02.000Z</time>
      </trkpt>
      <trkpt lat="46.45387" lon="6.04415">
        <ele>1205</ele>
        <time>2012-08-13T18:06:04.000Z</time>
      </trkpt>
      <trkpt lat="46.45387" lon="6.04424">
        <ele>1205</ele>
        <time>2012-08-13T18:06:05.000Z</time>
      </trkpt>
      <trkpt lat="46.45392" lon="6.04432">
        <ele>1204.9</ele>
        <time>2012-08-13T18:06:07.000Z</time>
      </trkpt>
      <trkpt lat="46.454" lon="6.04429">
        <ele>1204.7</ele>
        <time>2012-08-13T18:06:09.000Z</time>
      </trkpt>
      <trkpt lat="46.45406" lon="6.0443">
        <ele>1204.3</ele>
        <time>2012-08-13T18:06:11.000Z</time>
      </trkpt>
      <trkpt lat="46.45411" lon="6.04428">
        <ele>1203.1</ele>
        <time>2012-08-13T18:06:14.000Z</time>
      </trkpt>
      <trkpt lat="46.45414" lon="6.04422">
        <ele>1201.4</ele>
        <time>2012-08-13T18:06:18.000Z</time>
      </trkpt>
      <trkpt lat="46.45413" lon="6.04415">
        <ele>1202.4</ele>
        <time>2012-08-13T18:06:23.000Z</time>
      </trkpt>
      <trkpt lat="46.45413" lon="6.04408">
        <ele>1201.7</ele>
        <time>2012-08-13T18:06:27.000Z</time>
      </trkpt>
      <trkpt lat="46.45412" lon="6.04402">
        <ele>1201</ele>
        <time>2012-08-13T18:06:31.000Z</time>
      </trkpt>
      <trkpt lat="46.45415" lon="6.04396">
        <ele>1198</ele>
        <time>2012-08-13T18:06:45.000Z</time>
      </trkpt>
      <trkpt lat="46.4542" lon="6.04394">
        <ele>1197.5</ele>
        <time>2012-08-13T18:06:51.000Z</time>
      </trkpt>
      <trkpt lat="46.45424" lon="6.04392">
        <ele>1197.8</ele>
        <time>2012-08-13T18:06:55.000Z</time>
      </trkpt>
      <trkpt lat="46.45427" lon="6.04387">
        <ele>1196.7</ele>
        <time>2012-08-13T18:06:59.000Z</time>
      </trkpt>
      <trkpt lat="46.45432" lon="6.04382">
        <ele>1195.6</ele>
        <time>2012-08-13T18:07:04.000Z</time>
      </trkpt>
      <trkpt lat="46.45436" lon="6.04381">
        <ele>1194.4</ele>
        <time>2012-08-13T18:07:07.645Z</time>
      </trkpt>
      <trkpt lat="46.45439" lon="6.04387">
        <ele>1193.9</ele>
        <time>2012-08-13T18:07:14.000Z</time>
      </trkpt>
      <trkpt lat="46.45443" lon="6.0439">
        <ele>1194.2</ele>
        <time>2012-08-13T18:07:18.000Z</time>
      </trkpt>
      <trkpt lat="46.45449" lon="6.0439">
        <ele>1193.5</ele>
        <time>2012-08-13T18:07:21.000Z</time>
      </trkpt>
      <trkpt lat="46.45455" lon="6.0439">
        <ele>1193.1</ele>
        <time>2012-08-13T18:07:24.000Z</time>
      </trkpt>
      <trkpt lat="46.45459" lon="6.04391">
        <ele>1193</ele>
        <time>2012-08-13T18:07:27.000Z</time>
      </trkpt>
      <trkpt lat="46.45465" lon="6.04391">
        <ele>1193.5</ele>
        <time>2012-08-13T18:07:32.000Z</time>
      </trkpt>
      <trkpt lat="46.45465" lon="6.04384">
        <ele>1192.7</ele>
        <time>2012-08-13T18:07:54.000Z</time>
      </trkpt>
      <trkpt lat="46.45464" lon="6.04391">
        <ele>1191.3</ele>
        <time>2012-08-13T18:08:03.000Z</time>
      </trkpt>
      <trkpt lat="46.45469" lon="6.0439">
        <ele>1191.1</ele>
        <time>2012-08-13T18:08:11.000Z</time>
      </trkpt>
      <trkpt lat="46.45473" lon="6.04387">
        <ele>1189.1</ele>
        <time>2012-08-13T18:08:16.000Z</time>
      </trkpt>
      <trkpt lat="46.45479" lon="6.04386">
        <ele>1185.5</ele>
        <time>2012-08-13T18:08:20.000Z</time>
      </trkpt>
      <trkpt lat="46.45484" lon="6.04386">
        <ele>1184.7</ele>
        <time>2012-08-13T18:08:24.000Z</time>
      </trkpt>
      <trkpt lat="46.45489" lon="6.04384">
        <ele>1184.4</ele>
        <time>2012-08-13T18:08:27.000Z</time>
      </trkpt>
      <trkpt lat="46.45495" lon="6.04381">
        <ele>1186.2</ele>
        <time>2012-08-13T18:08:30.000Z</time>
      </trkpt>
      <trkpt lat="46.455" lon="6.04379">
        <ele>1185.6</ele>
        <time>2012-08-13T18:08:32.000Z</time>
      </trkpt>
      <trkpt lat="46.45505" lon="6.04375">
        <ele>1185.4</ele>
        <time>2012-08-13T18:08:35.000Z</time>
      </trkpt>
      <trkpt lat="46.4551" lon="6.04373">
        <ele>1187</ele>
        <time>2012-08-13T18:08:40.000Z</time>
      </trkpt>
      <trkpt lat="46.45514" lon="6.04371">
        <ele>1186.5</ele>
        <time>2012-08-13T18:08:46.000Z</time>
      </trkpt>
      <trkpt lat="46.45519" lon="6.04366">
        <ele>1189</ele>
        <time>2012-08-13T18:08:51.000Z</time>
      </trkpt>
      <trkpt lat="46.45524" lon="6.04362">
        <ele>1189.2</ele>
        <time>2012-08-13T18:08:54.000Z</time>
      </trkpt>
      <trkpt lat="46.45529" lon="6.04359">
        <ele>1189.7</ele>
        <time>2012-08-13T18:08:57.000Z</time>
      </trkpt>
      <trkpt lat="46.45536" lon="6.04357">
        <ele>1190.2</ele>
        <time>2012-08-13T18:09:00.000Z</time>
      </trkpt>
      <trkpt lat="46.45542" lon="6.04357">
        <ele>1189.9</ele>
        <time>2012-08-13T18:09:03.000Z</time>
      </trkpt>
      <trkpt lat="46.45547" lon="6.04357">
        <ele>1190.7</ele>
        <time>2012-08-13T18:09:05.000Z</time>
      </trkpt>
      <trkpt lat="46.45552" lon="6.04357">
        <ele>1190.3</ele>
        <time>2012-08-13T18:09:07.546Z</time>
      </trkpt>
      <trkpt lat="46.45557" lon="6.04356">
        <ele>1190.3</ele>
        <time>2012-08-13T18:09:11.000Z</time>
      </trkpt>
      <trkpt lat="46.45561" lon="6.0435">
        <ele>1189.5</ele>
        <time>2012-08-13T18:09:17.000Z</time>
      </trkpt>
      <trkpt lat="46.45566" lon="6.04346">
        <ele>1190</ele>
        <time>2012-08-13T18:09:21.000Z</time>
      </trkpt>
      <trkpt lat="46.4557" lon="6.04343">
        <ele>1189.6</ele>
        <time>2012-08-13T18:09:24.000Z</time>
      </trkpt>
      <trkpt lat="46.45575" lon="6.04341">
        <ele>1189.5</ele>
        <time>2012-08-13T18:09:27.000Z</time>
      </trkpt>
      <trkpt lat="46.45579" lon="6.0434">
        <ele>1188.3</ele>
        <time>2012-08-13T18:09:29.000Z</time>
      </trkpt>
      <trkpt lat="46.45584" lon="6.04341">
        <ele>1187.9</ele>
        <time>2012-08-13T18:09:32.000Z</time>
      </trkpt>
      <trkpt lat="46.45589" lon="6.04342">
        <ele>1187.6</ele>
        <time>2012-08-13T18:09:34.000Z</time>
      </trkpt>
      <trkpt lat="46.45595" lon="6.04342">
        <ele>1187.6</ele>
        <time>2012-08-13T18:09:36.000Z</time>
      </trkpt>
      <trkpt lat="46.456" lon="6.04342">
        <ele>1187.4</ele>
        <time>2012-08-13T18:09:38.000Z</time>
      </trkpt>
      <trkpt lat="46.45606" lon="6.04343">
        <ele>1190.1</ele>
        <time>2012-08-13T18:09:40.000Z</time>
      </trkpt>
      <trkpt lat="46.45611" lon="6.04343">
        <ele>1189.9</ele>
        <time>2012-08-13T18:09:42.000Z</time>
      </trkpt>
      <trkpt lat="46.45616" lon="6.04342">
        <ele>1189.7</ele>
        <time>2012-08-13T18:09:44.000Z</time>
      </trkpt>
      <trkpt lat="46.45622" lon="6.04342">
        <ele>1190.3</ele>
        <time>2012-08-13T18:09:47.000Z</time>
      </trkpt>
      <trkpt lat="46.45627" lon="6.04344">
        <ele>1189.8</ele>
        <time>2012-08-13T18:09:49.000Z</time>
      </trkpt>
      <trkpt lat="46.45632" lon="6.04347">
        <ele>1189.7</ele>
        <time>2012-08-13T18:09:51.000Z</time>
      </trkpt>
      <trkpt lat="46.45637" lon="6.04349">
        <ele>1189.6</ele>
        <time>2012-08-13T18:09:53.000Z</time>
      </trkpt>
      <trkpt lat="46.45641" lon="6.04351">
        <ele>1189.4</ele>
        <time>2012-08-13T18:09:55.000Z</time>
      </trkpt>
      <trkpt lat="46.45646" lon="6.04354">
        <ele>1189.3</ele>
        <time>2012-08-13T18:09:58.000Z</time>
      </trkpt>
      <trkpt lat="46.4565" lon="6.04358">
        <ele>1189.4</ele>
        <time>2012-08-13T18:10:01.000Z</time>
      </trkpt>
      <trkpt lat="46.45655" lon="6.04363">
        <ele>1189.7</ele>
        <time>2012-08-13T18:10:05.000Z</time>
      </trkpt>
      <trkpt lat="46.45662" lon="6.04367">
        <ele>1189.3</ele>
        <time>2012-08-13T18:10:09.000Z</time>
      </trkpt>
      <trkpt lat="46.45667" lon="6.0437">
        <ele>1189.6</ele>
        <time>2012-08-13T18:10:13.000Z</time>
      </trkpt>
      <trkpt lat="46.45672" lon="6.04371">
        <ele>1189.5</ele>
        <time>2012-08-13T18:10:17.000Z</time>
      </trkpt>
      <trkpt lat="46.45677" lon="6.04378">
        <ele>1188.9</ele>
        <time>2012-08-13T18:10:20.000Z</time>
      </trkpt>
      <trkpt lat="46.4568" lon="6.04385">
        <ele>1188.8</ele>
        <time>2012-08-13T18:10:23.000Z</time>
      </trkpt>
      <trkpt lat="46.45686" lon="6.0439">
        <ele>1188.1</ele>
        <time>2012-08-13T18:10:26.000Z</time>
      </trkpt>
      <trkpt lat="46.4569" lon="6.04396">
        <ele>1188.6</ele>
        <time>2012-08-13T18:10:29.000Z</time>
      </trkpt>
      <trkpt lat="46.45694" lon="6.044">
        <ele>1188</ele>
        <time>2012-08-13T18:10:31.000Z</time>
      </trkpt>
      <trkpt lat="46.45697" lon="6.04406">
        <ele>1188.5</ele>
        <time>2012-08-13T18:10:33.000Z</time>
      </trkpt>
      <trkpt lat="46.45701" lon="6.0441">
        <ele>1188.5</ele>
        <time>2012-08-13T18:10:35.000Z</time>
      </trkpt>
      <trkpt lat="46.45706" lon="6.04415">
        <ele>1188.5</ele>
        <time>2012-08-13T18:10:38.000Z</time>
      </trkpt>
      <trkpt lat="46.4571" lon="6.0442">
        <ele>1188.2</ele>
        <time>2012-08-13T18:10:41.000Z</time>
      </trkpt>
      <trkpt lat="46.45712" lon="6.04427">
        <ele>1188.6</ele>
        <time>2012-08-13T18:10:44.000Z</time>
      </trkpt>
      <trkpt lat="46.45715" lon="6.04434">
        <ele>1189.3</ele>
        <time>2012-08-13T18:10:47.000Z</time>
      </trkpt>
      <trkpt lat="46.45718" lon="6.04443">
        <ele>1190.6</ele>
        <time>2012-08-13T18:10:50.000Z</time>
      </trkpt>
      <trkpt lat="46.45722" lon="6.04448">
        <ele>1191.2</ele>
        <time>2012-08-13T18:10:52.000Z</time>
      </trkpt>
      <trkpt lat="46.45727" lon="6.04454">
        <ele>1193.7</ele>
        <time>2012-08-13T18:10:54.000Z</time>
      </trkpt>
      <trkpt lat="46.45731" lon="6.0446">
        <ele>1193.5</ele>
        <time>2012-08-13T18:10:56.000Z</time>
      </trkpt>
      <trkpt lat="46.45735" lon="6.04466">
        <ele>1194.3</ele>
        <time>2012-08-13T18:10:58.000Z</time>
      </trkpt>
      <trkpt lat="46.45737" lon="6.04473">
        <ele>1194.5</ele>
        <time>2012-08-13T18:11:01.000Z</time>
      </trkpt>
      <trkpt lat="46.45736" lon="6.0448">
        <ele>1191.8</ele>
        <time>2012-08-13T18:11:03.000Z</time>
      </trkpt>
      <trkpt lat="46.45734" lon="6.04487">
        <ele>1192.6</ele>
        <time>2012-08-13T18:11:05.000Z</time>
      </trkpt>
      <trkpt lat="46.45734" lon="6.04494">
        <ele>1192.8</ele>
        <time>2012-08-13T18:11:07.604Z</time>
      </trkpt>
      <trkpt lat="46.45735" lon="6.04502">
        <ele>1194.6</ele>
        <time>2012-08-13T18:11:11.000Z</time>
      </trkpt>
      <trkpt lat="46.45734" lon="6.04511">
        <ele>1190.3</ele>
        <time>2012-08-13T18:11:15.000Z</time>
      </trkpt>
      <trkpt lat="46.45735" lon="6.04518">
        <ele>1191.9</ele>
        <time>2012-08-13T18:11:19.000Z</time>
      </trkpt>
      <trkpt lat="46.45734" lon="6.04527">
        <ele>1194.6</ele>
        <time>2012-08-13T18:11:22.000Z</time>
      </trkpt>
      <trkpt lat="46.45734" lon="6.04536">
        <ele>1193.5</ele>
        <time>2012-08-13T18:11:24.000Z</time>
      </trkpt>
      <trkpt lat="46.45734" lon="6.04543">
        <ele>1194.9</ele>
        <time>2012-08-13T18:11:26.000Z</time>
      </trkpt>
      <trkpt lat="46.45733" lon="6.04549">
        <ele>1194.4</ele>
        <time>2012-08-13T18:11:29.000Z</time>
      </trkpt>
      <trkpt lat="46.45735" lon="6.04555">
        <ele>1191.2</ele>
        <time>2012-08-13T18:11:43.000Z</time>
      </trkpt>
      <trkpt lat="46.45736" lon="6.04562">
        <ele>1191.3</ele>
        <time>2012-08-13T18:11:47.000Z</time>
      </trkpt>
      <trkpt lat="46.45735" lon="6.0457">
        <ele>1192</ele>
        <time>2012-08-13T18:11:51.000Z</time>
      </trkpt>
      <trkpt lat="46.45734" lon="6.04576">
        <ele>1191.1</ele>
        <time>2012-08-13T18:11:55.000Z</time>
      </trkpt>
      <trkpt lat="46.45729" lon="6.04579">
        <ele>1191.9</ele>
        <time>2012-08-13T18:11:59.000Z</time>
      </trkpt>
      <trkpt lat="46.45724" lon="6.0458">
        <ele>1192.8</ele>
        <time>2012-08-13T18:12:03.000Z</time>
      </trkpt>
      <trkpt lat="46.4572" lon="6.04587">
        <ele>1189.7</ele>
        <time>2012-08-13T18:12:07.601Z</time>
      </trkpt>
      <trkpt lat="46.45717" lon="6.04596">
        <ele>1187.5</ele>
        <time>2012-08-13T18:12:10.000Z</time>
      </trkpt>
      <trkpt lat="46.45714" lon="6.04603">
        <ele>1188.3</ele>
        <time>2012-08-13T18:12:16.000Z</time>
      </trkpt>
      <trkpt lat="46.45709" lon="6.04609">
        <ele>1188.5</ele>
        <time>2012-08-13T18:12:19.000Z</time>
      </trkpt>
      <trkpt lat="46.45704" lon="6.04614">
        <ele>1187.7</ele>
        <time>2012-08-13T18:12:21.000Z</time>
      </trkpt>
      <trkpt lat="46.457" lon="6.04621">
        <ele>1189.1</ele>
        <time>2012-08-13T18:12:23.000Z</time>
      </trkpt>
      <trkpt lat="46.45697" lon="6.04628">
        <ele>1189.9</ele>
        <time>2012-08-13T18:12:25.000Z</time>
      </trkpt>
      <trkpt lat="46.45694" lon="6.04634">
        <ele>1191.1</ele>
        <time>2012-08-13T18:12:27.000Z</time>
      </trkpt>
      <trkpt lat="46.45692" lon="6.04641">
        <ele>1192.5</ele>
        <time>2012-08-13T18:12:29.000Z</time>
      </trkpt>
      <trkpt lat="46.4569" lon="6.04647">
        <ele>1193.3</ele>
        <time>2012-08-13T18:12:31.000Z</time>
      </trkpt>
      <trkpt lat="46.45687" lon="6.04652">
        <ele>1192.7</ele>
        <time>2012-08-13T18:12:33.000Z</time>
      </trkpt>
      <trkpt lat="46.45682" lon="6.04658">
        <ele>1192.2</ele>
        <time>2012-08-13T18:12:35.000Z</time>
      </trkpt>
      <trkpt lat="46.45678" lon="6.04662">
        <ele>1192.7</ele>
        <time>2012-08-13T18:12:37.000Z</time>
      </trkpt>
      <trkpt lat="46.45674" lon="6.04666">
        <ele>1192.8</ele>
        <time>2012-08-13T18:12:39.000Z</time>
      </trkpt>
      <trkpt lat="46.4567" lon="6.0467">
        <ele>1193.4</ele>
        <time>2012-08-13T18:12:41.000Z</time>
      </trkpt>
      <trkpt lat="46.45666" lon="6.04675">
        <ele>1194.6</ele>
        <time>2012-08-13T18:12:43.000Z</time>
      </trkpt>
      <trkpt lat="46.45663" lon="6.0468">
        <ele>1193.8</ele>
        <time>2012-08-13T18:12:45.000Z</time>
      </trkpt>
      <trkpt lat="46.4566" lon="6.04686">
        <ele>1195.1</ele>
        <time>2012-08-13T18:12:47.000Z</time>
      </trkpt>
      <trkpt lat="46.45657" lon="6.04693">
        <ele>1195.7</ele>
        <time>2012-08-13T18:12:50.000Z</time>
      </trkpt>
      <trkpt lat="46.45654" lon="6.04698">
        <ele>1196.2</ele>
        <time>2012-08-13T18:12:53.000Z</time>
      </trkpt>
      <trkpt lat="46.45653" lon="6.04707">
        <ele>1195.3</ele>
        <time>2012-08-13T18:12:57.000Z</time>
      </trkpt>
      <trkpt lat="46.45654" lon="6.04715">
        <ele>1194.5</ele>
        <time>2012-08-13T18:13:00.000Z</time>
      </trkpt>
      <trkpt lat="46.45657" lon="6.0472">
        <ele>1193.9</ele>
        <time>2012-08-13T18:13:02.000Z</time>
      </trkpt>
      <trkpt lat="46.45661" lon="6.04725">
        <ele>1193.8</ele>
        <time>2012-08-13T18:13:04.000Z</time>
      </trkpt>
      <trkpt lat="46.45664" lon="6.0473">
        <ele>1194.2</ele>
        <time>2012-08-13T18:13:06.000Z</time>
      </trkpt>
      <trkpt lat="46.45669" lon="6.04737">
        <ele>1194.4</ele>
        <time>2012-08-13T18:13:09.000Z</time>
      </trkpt>
      <trkpt lat="46.45674" lon="6.04741">
        <ele>1194.7</ele>
        <time>2012-08-13T18:13:12.000Z</time>
      </trkpt>
      <trkpt lat="46.45678" lon="6.04743">
        <ele>1195.6</ele>
        <time>2012-08-13T18:13:14.000Z</time>
      </trkpt>
      <trkpt lat="46.45683" lon="6.04746">
        <ele>1195.6</ele>
        <time>2012-08-13T18:13:16.000Z</time>
      </trkpt>
      <trkpt lat="46.45689" lon="6.04748">
        <ele>1195.5</ele>
        <time>2012-08-13T18:13:18.000Z</time>
      </trkpt>
      <trkpt lat="46.45694" lon="6.04753">
        <ele>1195.5</ele>
        <time>2012-08-13T18:13:20.000Z</time>
      </trkpt>
      <trkpt lat="46.45697" lon="6.0476">
        <ele>1194.8</ele>
        <time>2012-08-13T18:13:22.000Z</time>
      </trkpt>
      <trkpt lat="46.457" lon="6.04766">
        <ele>1194.5</ele>
        <time>2012-08-13T18:13:24.000Z</time>
      </trkpt>
      <trkpt lat="46.45703" lon="6.04772">
        <ele>1193.8</ele>
        <time>2012-08-13T18:13:26.000Z</time>
      </trkpt>
      <trkpt lat="46.45705" lon="6.04779">
        <ele>1193.9</ele>
        <time>2012-08-13T18:13:28.000Z</time>
      </trkpt>
      <trkpt lat="46.45708" lon="6.04784">
        <ele>1192.2</ele>
        <time>2012-08-13T18:13:30.000Z</time>
      </trkpt>
      <trkpt lat="46.45712" lon="6.04788">
        <ele>1190.5</ele>
        <time>2012-08-13T18:13:32.000Z</time>
      </trkpt>
      <trkpt lat="46.45716" lon="6.04792">
        <ele>1190.5</ele>
        <time>2012-08-13T18:13:34.000Z</time>
      </trkpt>
      <trkpt lat="46.4572" lon="6.04797">
        <ele>1189.9</ele>
        <time>2012-08-13T18:13:36.000Z</time>
      </trkpt>
      <trkpt lat="46.45726" lon="6.04799">
        <ele>1189.4</ele>
        <time>2012-08-13T18:13:38.000Z</time>
      </trkpt>
      <trkpt lat="46.4573" lon="6.04802">
        <ele>1189</ele>
        <time>2012-08-13T18:13:40.000Z</time>
      </trkpt>
      <trkpt lat="46.45733" lon="6.04811">
        <ele>1187</ele>
        <time>2012-08-13T18:13:43.000Z</time>
      </trkpt>
      <trkpt lat="46.45733" lon="6.0482">
        <ele>1185.9</ele>
        <time>2012-08-13T18:13:45.000Z</time>
      </trkpt>
      <trkpt lat="46.45733" lon="6.04829">
        <ele>1183</ele>
        <time>2012-08-13T18:13:47.000Z</time>
      </trkpt>
      <trkpt lat="46.45733" lon="6.04838">
        <ele>1183</ele>
        <time>2012-08-13T18:13:49.000Z</time>
      </trkpt>
      <trkpt lat="46.45734" lon="6.04847">
        <ele>1182.9</ele>
        <time>2012-08-13T18:13:51.000Z</time>
      </trkpt>
      <trkpt lat="46.45737" lon="6.04854">
        <ele>1182.5</ele>
        <time>2012-08-13T18:13:54.000Z</time>
      </trkpt>
      <trkpt lat="46.45739" lon="6.04861">
        <ele>1182.3</ele>
        <time>2012-08-13T18:13:57.000Z</time>
      </trkpt>
      <trkpt lat="46.45741" lon="6.0487">
        <ele>1182.2</ele>
        <time>2012-08-13T18:14:00.000Z</time>
      </trkpt>
      <trkpt lat="46.45743" lon="6.04876">
        <ele>1181.8</ele>
        <time>2012-08-13T18:14:02.000Z</time>
      </trkpt>
      <trkpt lat="46.45745" lon="6.04883">
        <ele>1182.7</ele>
        <time>2012-08-13T18:14:04.000Z</time>
      </trkpt>
      <trkpt lat="46.45747" lon="6.0489">
        <ele>1181.9</ele>
        <time>2012-08-13T18:14:06.000Z</time>
      </trkpt>
      <trkpt lat="46.4575" lon="6.04899">
        <ele>1181.4</ele>
        <time>2012-08-13T18:14:09.000Z</time>
      </trkpt>
      <trkpt lat="46.45752" lon="6.04905">
        <ele>1182.4</ele>
        <time>2012-08-13T18:14:11.000Z</time>
      </trkpt>
      <trkpt lat="46.45754" lon="6.04912">
        <ele>1183.1</ele>
        <time>2012-08-13T18:14:13.000Z</time>
      </trkpt>
      <trkpt lat="46.45757" lon="6.04917">
        <ele>1184.2</ele>
        <time>2012-08-13T18:14:15.000Z</time>
      </trkpt>
      <trkpt lat="46.45763" lon="6.0492">
        <ele>1180.1</ele>
        <time>2012-08-13T18:14:18.000Z</time>
      </trkpt>
      <trkpt lat="46.45767" lon="6.04918">
        <ele>1179.7</ele>
        <time>2012-08-13T18:14:21.000Z</time>
      </trkpt>
    </trkseg>
  </trk>
</gpx>